Observation data for Crane on 12/08/2019      Previous  Date       Current Mesonet Observations  Soil Data  Daily Summary Page  Observations in Plain Language
KCR2 080600Z 17008KT 14/04 A3008 RMK A01 T01400038  RH  050%=      5-min Rain = 0
KCR2 080601Z 17009KT 14/04 A3008 RMK A01 T01390037  RH  050%=      5-min Rain = 0
KCR2 080602Z 17011KT 14/04 A3008 RMK A01 T01390038  RH  051%=      5-min Rain = 0
KCR2 080603Z 17010G15KT 14/04 A3008 RMK A01 T01390038  RH  051%=      5-min Rain = 0
KCR2 080604Z 17012KT 14/04 A3007 RMK A01 T01390038  RH  050%=      5-min Rain = 0
KCR2 080605Z 17013KT 14/04 A3007 RMK A01 T01390038  RH  051%=      5-min Rain = 0
KCR2 080606Z 17013KT 14/04 A3007 RMK A01 T01390038  RH  050%=      5-min Rain = 0
KCR2 080607Z 17011KT 14/04 A3007 RMK A01 T01400038  RH  050%=      5-min Rain = 0
KCR2 080608Z 17011KT 14/04 A3007 RMK A01 T01390038  RH  051%=      5-min Rain = 0
KCR2 080609Z 16010KT 14/04 A3008 RMK A01 T01380038  RH  051%=      5-min Rain = 0
KCR2 080610Z 16009KT 14/04 A3008 RMK A01 T01380038  RH  051%=      5-min Rain = 0
KCR2 080611Z 16007KT 14/04 A3008 RMK A01 T01390039  RH  051%=      5-min Rain = 0
KCR2 080612Z 16008KT 14/04 A3008 RMK A01 T01380038  RH  051%=      5-min Rain = 0
KCR2 080613Z 16009KT 14/04 A3008 RMK A01 T01380038  RH  051%=      5-min Rain = 0
KCR2 080614Z 16010KT 14/04 A3008 RMK A01 T01380038  RH  051%=      5-min Rain = 0
KCR2 080615Z 16010KT 14/04 A3008 RMK A01 T01380038  RH  051%=      5-min Rain = 0
KCR2 080616Z 16009KT 14/04 A3008 RMK A01 T01390038  RH  051%=      5-min Rain = 0
KCR2 080617Z 16009KT 14/04 A3008 RMK A01 T01390038  RH  051%=      5-min Rain = 0
KCR2 080618Z 15009KT 14/04 A3008 RMK A01 T01390038  RH  051%=      5-min Rain = 0
KCR2 080619Z 15007KT 14/04 A3008 RMK A01 T01400038  RH  050%=      5-min Rain = 0
KCR2 080620Z 15008KT 14/04 A3008 RMK A01 T01390038  RH  051%=      5-min Rain = 0
KCR2 080621Z 15007KT 14/04 A3007 RMK A01 T01380038  RH  051%=      5-min Rain = 0
KCR2 080622Z 15007KT 14/04 A3007 RMK A01 T01370037  RH  051%=      5-min Rain = 0
KCR2 080623Z 15007KT 14/04 A3007 RMK A01 T01370038  RH  051%=      5-min Rain = 0
KCR2 080624Z 16007KT 14/04 A3007 RMK A01 T01360038  RH  051%=      5-min Rain = 0
KCR2 080625Z 16007KT 14/04 A3007 RMK A01 T01350038  RH  052%=      5-min Rain = 0
KCR2 080626Z 16008KT 14/04 A3007 RMK A01 T01350038  RH  052%=      5-min Rain = 0
KCR2 080627Z 15007KT 14/04 A3007 RMK A01 T01350038  RH  052%=      5-min Rain = 0
KCR2 080628Z 16009KT 14/04 A3007 RMK A01 T01360038  RH  052%=      5-min Rain = 0
KCR2 080629Z 16009KT 14/04 A3007 RMK A01 T01360039  RH  052%=      5-min Rain = 0
KCR2 080630Z 16008KT 14/04 A3007 RMK A01 T01350038  RH  052%=      5-min Rain = 0
KCR2 080631Z 16008KT 14/04 A3007 RMK A01 T01360038  RH  052%=      5-min Rain = 0
KCR2 080632Z 16008KT 14/04 A3007 RMK A01 T01350038  RH  052%=      5-min Rain = 0
KCR2 080633Z 16008KT 14/04 A3007 RMK A01 T01350038  RH  052%=      5-min Rain = 0
KCR2 080634Z 16007KT 13/04 A3007 RMK A01 T01340039  RH  052%=      5-min Rain = 0
KCR2 080635Z 16006KT 13/04 A3007 RMK A01 T01340039  RH  052%=      5-min Rain = 0
KCR2 080636Z 16007KT 13/04 A3007 RMK A01 T01340038  RH  052%=      5-min Rain = 0
KCR2 080637Z 16006KT 13/04 A3006 RMK A01 T01340038  RH  052%=      5-min Rain = 0
KCR2 080638Z 17008KT 13/04 A3006 RMK A01 T01340038  RH  052%=      5-min Rain = 0
KCR2 080639Z 16008KT 14/04 A3006 RMK A01 T01350039  RH  052%=      5-min Rain = 0
KCR2 080640Z 17007KT 14/04 A3006 RMK A01 T01360039  RH  052%=      5-min Rain = 0
KCR2 080641Z 17008KT 14/04 A3006 RMK A01 T01360039  RH  052%=      5-min Rain = 0
KCR2 080642Z 16008KT 14/04 A3006 RMK A01 T01360039  RH  052%=      5-min Rain = 0
KCR2 080643Z 16008KT 14/04 A3006 RMK A01 T01370039  RH  051%=      5-min Rain = 0
KCR2 080644Z 16010KT 14/04 A3006 RMK A01 T01360039  RH  052%=      5-min Rain = 0
KCR2 080645Z 16008KT 14/04 A3006 RMK A01 T01360039  RH  052%=      5-min Rain = 0
KCR2 080646Z 16010KT 14/04 A3006 RMK A01 T01360039  RH  052%=      5-min Rain = 0
KCR2 080647Z 16014KT 14/04 A3005 RMK A01 T01360039  RH  052%=      5-min Rain = 0
KCR2 080648Z 16013KT 14/04 A3005 RMK A01 T01370039  RH  052%=      5-min Rain = 0
KCR2 080649Z 16011KT 14/04 A3006 RMK A01 T01380039  RH  051%=      5-min Rain = 0
KCR2 080650Z 16009KT 14/04 A3006 RMK A01 T01390039  RH  051%=      5-min Rain = 0
KCR2 080651Z 16009KT 14/04 A3006 RMK A01 T01390039  RH  051%=      5-min Rain = 0
KCR2 080652Z 17010KT 14/04 A3006 RMK A01 T01390039  RH  051%=      5-min Rain = 0
KCR2 080653Z 17008KT 14/04 A3006 RMK A01 T01390039  RH  051%=      5-min Rain = 0
KCR2 080654Z 16008KT 14/04 A3005 RMK A01 T01390039  RH  051%=      5-min Rain = 0
KCR2 080655Z 16010G15KT 14/04 A3005 RMK A01 T01380039  RH  051%=      5-min Rain = 0
KCR2 080656Z 16013KT 14/04 A3005 RMK A01 T01370039  RH  051%=      5-min Rain = 0
KCR2 080657Z 16012KT 14/04 A3005 RMK A01 T01370039  RH  051%=      5-min Rain = 0
KCR2 080658Z 16010KT 14/04 A3005 RMK A01 T01390039  RH  051%=      5-min Rain = 0
KCR2 080659Z 17010KT 14/04 A3005 RMK A01 T01380039  RH  051%=      5-min Rain = 0
KCR2 080700Z 17008KT 14/04 A3005 RMK A01 T01380039  RH  051%=      5-min Rain = 0
KCR2 080701Z 17008KT 14/04 A3005 RMK A01 T01380039  RH  051%=      5-min Rain = 0
KCR2 080702Z 17008KT 14/04 A3005 RMK A01 T01370039  RH  052%=      5-min Rain = 0
KCR2 080703Z 17008KT 14/04 A3005 RMK A01 T01370039  RH  051%=      5-min Rain = 0
KCR2 080704Z 17010KT 14/04 A3004 RMK A01 T01370039  RH  051%=      5-min Rain = 0
KCR2 080705Z 17009KT 14/04 A3004 RMK A01 T01370039  RH  051%=      5-min Rain = 0
KCR2 080706Z 17008KT 14/04 A3004 RMK A01 T01370039  RH  051%=      5-min Rain = 0
KCR2 080707Z 17008KT 14/04 A3004 RMK A01 T01370039  RH  051%=      5-min Rain = 0
KCR2 080708Z 17008KT 14/04 A3004 RMK A01 T01360038  RH  052%=      5-min Rain = 0
KCR2 080709Z 17008KT 14/04 A3004 RMK A01 T01350038  RH  052%=      5-min Rain = 0
KCR2 080710Z 17008KT 13/04 A3004 RMK A01 T01340038  RH  052%=      5-min Rain = 0
KCR2 080711Z 17008KT 13/04 A3004 RMK A01 T01340038  RH  052%=      5-min Rain = 0
KCR2 080712Z 17009KT 13/04 A3004 RMK A01 T01340039  RH  052%=      5-min Rain = 0
KCR2 080713Z 18009KT 13/04 A3004 RMK A01 T01340039  RH  052%=      5-min Rain = 0
KCR2 080714Z 17008KT 14/04 A3004 RMK A01 T01350039  RH  052%=      5-min Rain = 0
KCR2 080715Z 17008KT 14/04 A3005 RMK A01 T01350039  RH  052%=      5-min Rain = 0
KCR2 080716Z 17007KT 13/04 A3005 RMK A01 T01340038  RH  052%=      5-min Rain = 0
KCR2 080717Z 17008KT 13/04 A3005 RMK A01 T01340039  RH  052%=      5-min Rain = 0
KCR2 080718Z 17006KT 14/04 A3005 RMK A01 T01350039  RH  052%=      5-min Rain = 0
KCR2 080719Z 17008KT 14/04 A3004 RMK A01 T01350039  RH  052%=      5-min Rain = 0
KCR2 080720Z 17008KT 14/04 A3004 RMK A01 T01350039  RH  052%=      5-min Rain = 0
KCR2 080721Z 17007KT 14/04 A3004 RMK A01 T01360039  RH  052%=      5-min Rain = 0
KCR2 080722Z 17007KT 14/04 A3005 RMK A01 T01360038  RH  052%=      5-min Rain = 0
KCR2 080723Z 17006KT 14/04 A3005 RMK A01 T01360039  RH  052%=      5-min Rain = 0
KCR2 080724Z 17006KT 14/04 A3005 RMK A01 T01360038  RH  052%=      5-min Rain = 0
KCR2 080725Z 17007KT 14/04 A3005 RMK A01 T01350038  RH  052%=      5-min Rain = 0
KCR2 080726Z 17007KT 14/04 A3004 RMK A01 T01350039  RH  052%=      5-min Rain = 0
KCR2 080727Z 17007KT 14/04 A3004 RMK A01 T01350039  RH  052%=      5-min Rain = 0
KCR2 080728Z 16006KT 13/04 A3004 RMK A01 T01340039  RH  052%=      5-min Rain = 0
KCR2 080729Z 16005KT 13/04 A3004 RMK A01 T01340039  RH  052%=      5-min Rain = 0
KCR2 080730Z 15005KT 13/04 A3004 RMK A01 T01340038  RH  052%=      5-min Rain = 0
KCR2 080731Z 15005KT 13/04 A3004 RMK A01 T01340038  RH  052%=      5-min Rain = 0
KCR2 080732Z 16006KT 13/04 A3004 RMK A01 T01330038  RH  052%=      5-min Rain = 0
KCR2 080733Z 16006KT 13/04 A3004 RMK A01 T01330038  RH  053%=      5-min Rain = 0
KCR2 080734Z 17005KT 13/04 A3004 RMK A01 T01330038  RH  053%=      5-min Rain = 0
KCR2 080735Z 19004KT 13/04 A3004 RMK A01 T01330038  RH  053%=      5-min Rain = 0
KCR2 080736Z 18003KT 13/04 A3004 RMK A01 T01320038  RH  053%=      5-min Rain = 0
KCR2 080737Z 18002KT 13/04 A3004 RMK A01 T01320038  RH  053%=      5-min Rain = 0
KCR2 080738Z 18004KT 13/04 A3004 RMK A01 T01310038  RH  053%=      5-min Rain = 0
KCR2 080739Z 19006KT 13/04 A3004 RMK A01 T01300038  RH  053%=      5-min Rain = 0
KCR2 080740Z 21004KT 13/04 A3004 RMK A01 T01300038  RH  054%=      5-min Rain = 0
KCR2 080741Z 23004KT 13/04 A3004 RMK A01 T01300038  RH  054%=      5-min Rain = 0
KCR2 080742Z 25002KT 13/04 A3004 RMK A01 T01300039  RH  054%=      5-min Rain = 0
KCR2 080743Z 24004KT 13/04 A3004 RMK A01 T01290039  RH  054%=      5-min Rain = 0
KCR2 080744Z 25004KT 13/04 A3004 RMK A01 T01290038  RH  054%=      5-min Rain = 0
KCR2 080745Z 23006KT 13/04 A3004 RMK A01 T01290038  RH  054%=      5-min Rain = 0
KCR2 080746Z 22006KT 13/04 A3004 RMK A01 T01290038  RH  054%=      5-min Rain = 0
KCR2 080747Z 21007KT 13/04 A3004 RMK A01 T01300039  RH  054%=      5-min Rain = 0
KCR2 080748Z 20006KT 13/04 A3003 RMK A01 T01290040  RH  054%=      5-min Rain = 0
KCR2 080749Z 20008KT 13/04 A3003 RMK A01 T01290039  RH  054%=      5-min Rain = 0
KCR2 080750Z 19007KT 13/04 A3003 RMK A01 T01290038  RH  054%=      5-min Rain = 0
KCR2 080751Z 19008KT 13/04 A3003 RMK A01 T01300038  RH  054%=      5-min Rain = 0
KCR2 080752Z 18007KT 13/04 A3003 RMK A01 T01290038  RH  054%=      5-min Rain = 0
KCR2 080753Z 18008KT 13/04 A3003 RMK A01 T01290038  RH  054%=      5-min Rain = 0
KCR2 080754Z 18008KT 13/04 A3003 RMK A01 T01290037  RH  054%=      5-min Rain = 0
KCR2 080755Z 18009KT 13/04 A3003 RMK A01 T01280037  RH  054%=      5-min Rain = 0
KCR2 080756Z 17009KT 13/04 A3003 RMK A01 T01280038  RH  054%=      5-min Rain = 0
KCR2 080757Z 17008KT 13/04 A3002 RMK A01 T01280038  RH  054%=      5-min Rain = 0
KCR2 080758Z 18007KT 13/04 A3002 RMK A01 T01290038  RH  054%=      5-min Rain = 0
KCR2 080759Z 18007KT 13/04 A3002 RMK A01 T01290037  RH  054%=      5-min Rain = 0
KCR2 080800Z 16007KT 13/04 A3002 RMK A01 T01290037  RH  054%=      5-min Rain = 0
KCR2 080801Z 17007KT 13/04 A3002 RMK A01 T01290038  RH  054%=      5-min Rain = 0
KCR2 080802Z 18006KT 13/04 A3002 RMK A01 T01290037  RH  054%=      5-min Rain = 0
KCR2 080803Z 18005KT 13/04 A3002 RMK A01 T01290037  RH  054%=      5-min Rain = 0
KCR2 080804Z 19005KT 13/04 A3003 RMK A01 T01290037  RH  054%=      5-min Rain = 0
KCR2 080805Z 19004KT 13/04 A3003 RMK A01 T01290037  RH  054%=      5-min Rain = 0
KCR2 080806Z 19004KT 13/04 A3003 RMK A01 T01290038  RH  054%=      5-min Rain = 0
KCR2 080807Z 19004KT 13/04 A3003 RMK A01 T01300038  RH  053%=      5-min Rain = 0
KCR2 080808Z 19003KT 13/04 A3003 RMK A01 T01310038  RH  053%=      5-min Rain = 0
KCR2 080809Z 18003KT 13/04 A3003 RMK A01 T01300037  RH  053%=      5-min Rain = 0
KCR2 080810Z 17003KT 13/04 A3003 RMK A01 T01300037  RH  053%=      5-min Rain = 0
KCR2 080811Z 18003KT 13/04 A3003 RMK A01 T01290037  RH  053%=      5-min Rain = 0
KCR2 080812Z 20003KT 13/04 A3003 RMK A01 T01290037  RH  054%=      5-min Rain = 0
KCR2 080813Z 21003KT 13/04 A3003 RMK A01 T01280036  RH  054%=      5-min Rain = 0
KCR2 080814Z 21003KT 13/04 A3003 RMK A01 T01260036  RH  054%=      5-min Rain = 0
KCR2 080815Z 19002KT 13/04 A3003 RMK A01 T01250036  RH  055%=      5-min Rain = 0
KCR2 080816Z 15002KT 12/04 A3003 RMK A01 T01230035  RH  055%=      5-min Rain = 0
KCR2 080817Z 16002KT 12/04 A3003 RMK A01 T01220035  RH  055%=      5-min Rain = 0
KCR2 080818Z 16003KT 12/04 A3003 RMK A01 T01210035  RH  056%=      5-min Rain = 0
KCR2 080819Z 14002KT 12/03 A3003 RMK A01 T01190033  RH  055%=      5-min Rain = 0
KCR2 080820Z 16001KT 11/03 A3003 RMK A01 T01140030  RH  056%=      5-min Rain = 0
KCR2 080821Z 17000KT 11/03 A3003 RMK A01 T01110032  RH  058%=      5-min Rain = 0
KCR2 080822Z 19001KT 11/03 A3003 RMK A01 T01090033  RH  059%=      5-min Rain = 0
KCR2 080823Z 21002KT 11/03 A3003 RMK A01 T01100034  RH  059%=      5-min Rain = 0
KCR2 080824Z 21002KT 11/03 A3003 RMK A01 T01100032  RH  059%=      5-min Rain = 0
KCR2 080825Z 21002KT 11/03 A3003 RMK A01 T01090033  RH  059%=      5-min Rain = 0
KCR2 080826Z 20003KT 11/03 A3003 RMK A01 T01090033  RH  059%=      5-min Rain = 0
KCR2 080827Z 20002KT 11/03 A3003 RMK A01 T01100033  RH  059%=      5-min Rain = 0
KCR2 080828Z 20003KT 11/03 A3003 RMK A01 T01100033  RH  059%=      5-min Rain = 0
KCR2 080829Z 20002KT 11/03 A3002 RMK A01 T01100033  RH  059%=      5-min Rain = 0
KCR2 080830Z 20002KT 11/03 A3003 RMK A01 T01090030  RH  058%=      5-min Rain = 0
KCR2 080831Z 19002KT 11/03 A3002 RMK A01 T01050030  RH  060%=      5-min Rain = 0
KCR2 080832Z 17002KT 10/03 A3002 RMK A01 T01030030  RH  060%=      5-min Rain = 0
KCR2 080833Z 17000KT 10/03 A3002 RMK A01 T01000028  RH  061%=      5-min Rain = 0
KCR2 080834Z 12001KT 10/03 A3002 RMK A01 T00970029  RH  062%=      5-min Rain = 0
KCR2 080835Z 05001KT 09/03 A3002 RMK A01 T00940028  RH  063%=      5-min Rain = 0
KCR2 080836Z 06003KT 09/03 A3002 RMK A01 T00920029  RH  065%=      5-min Rain = 0
KCR2 080837Z 06003KT 09/03 A3002 RMK A01 T00900028  RH  065%=      5-min Rain = 0
KCR2 080838Z 06002KT 09/03 A3002 RMK A01 T00890028  RH  066%=      5-min Rain = 0
KCR2 080839Z 09002KT 09/03 A3002 RMK A01 T00870029  RH  067%=      5-min Rain = 0
KCR2 080840Z 09002KT 09/03 A3002 RMK A01 T00870029  RH  067%=      5-min Rain = 0
KCR2 080841Z 09002KT 09/03 A3002 RMK A01 T00870030  RH  068%=      5-min Rain = 0
KCR2 080842Z 10002KT 09/03 A3002 RMK A01 T00870030  RH  068%=      5-min Rain = 0
KCR2 080843Z 10003KT 09/03 A3002 RMK A01 T00870030  RH  068%=      5-min Rain = 0
KCR2 080844Z 09004KT 09/03 A3002 RMK A01 T00870030  RH  067%=      5-min Rain = 0
KCR2 080845Z 10003KT 09/03 A3002 RMK A01 T00860030  RH  068%=      5-min Rain = 0
KCR2 080846Z 10003KT 09/03 A3002 RMK A01 T00850030  RH  068%=      5-min Rain = 0
KCR2 080847Z 11003KT 09/03 A3002 RMK A01 T00850031  RH  069%=      5-min Rain = 0
KCR2 080848Z 11003KT 09/03 A3002 RMK A01 T00860031  RH  068%=      5-min Rain = 0
KCR2 080849Z 11003KT 09/03 A3002 RMK A01 T00870031  RH  068%=      5-min Rain = 0
KCR2 080850Z 10003KT 09/03 A3002 RMK A01 T00860030  RH  068%=      5-min Rain = 0
KCR2 080851Z 11003KT 09/03 A3002 RMK A01 T00850029  RH  068%=      5-min Rain = 0
KCR2 080852Z 11003KT 08/03 A3002 RMK A01 T00840029  RH  068%=      5-min Rain = 0
KCR2 080853Z 11003KT 08/03 A3002 RMK A01 T00830028  RH  068%=      5-min Rain = 0
KCR2 080854Z 10003KT 08/03 A3002 RMK A01 T00810027  RH  069%=      5-min Rain = 0
KCR2 080855Z 09004KT 08/03 A3002 RMK A01 T00800027  RH  069%=      5-min Rain = 0
KCR2 080856Z 08004KT 08/03 A3002 RMK A01 T00800029  RH  070%=      5-min Rain = 0
KCR2 080857Z 08004KT 08/03 A3002 RMK A01 T00810030  RH  070%=      5-min Rain = 0
KCR2 080858Z 07004KT 08/03 A3002 RMK A01 T00810029  RH  070%=      5-min Rain = 0
KCR2 080859Z 07004KT 08/03 A3002 RMK A01 T00810030  RH  070%=      5-min Rain = 0
KCR2 080900Z 07003KT 08/03 A3002 RMK A01 T00820030  RH  070%=      5-min Rain = 0
KCR2 080901Z 08003KT 08/03 A3002 RMK A01 T00820030  RH  070%=      5-min Rain = 0
KCR2 080902Z 08002KT 08/03 A3002 RMK A01 T00820029  RH  069%=      5-min Rain = 0
KCR2 080903Z 09002KT 08/03 A3002 RMK A01 T00820028  RH  069%=      5-min Rain = 0
KCR2 080904Z 10002KT 08/03 A3002 RMK A01 T00810029  RH  070%=      5-min Rain = 0
KCR2 080905Z 11003KT 08/03 A3002 RMK A01 T00810029  RH  070%=      5-min Rain = 0
KCR2 080906Z 12003KT 08/03 A3002 RMK A01 T00810030  RH  070%=      5-min Rain = 0
KCR2 080907Z 12002KT 08/03 A3002 RMK A01 T00820030  RH  070%=      5-min Rain = 0
KCR2 080908Z 13002KT 08/03 A3002 RMK A01 T00820030  RH  070%=      5-min Rain = 0
KCR2 080909Z 15002KT 08/03 A3002 RMK A01 T00820030  RH  070%=      5-min Rain = 0
KCR2 080910Z 13002KT 08/03 A3002 RMK A01 T00830030  RH  070%=      5-min Rain = 0
KCR2 080911Z 13001KT 08/03 A3002 RMK A01 T00830030  RH  069%=      5-min Rain = 0
KCR2 080912Z 12001KT 08/03 A3002 RMK A01 T00830030  RH  069%=      5-min Rain = 0
KCR2 080913Z 09001KT 08/03 A3002 RMK A01 T00830030  RH  069%=      5-min Rain = 0
KCR2 080914Z 07002KT 08/03 A3002 RMK A01 T00820029  RH  069%=      5-min Rain = 0
KCR2 080915Z 06004KT 08/03 A3002 RMK A01 T00810028  RH  069%=      5-min Rain = 0
KCR2 080916Z 05004KT 08/03 A3002 RMK A01 T00800029  RH  070%=      5-min Rain = 0
KCR2 080917Z 05004KT 08/03 A3002 RMK A01 T00800030  RH  070%=      5-min Rain = 0
KCR2 080918Z 05005KT 08/03 A3002 RMK A01 T00790028  RH  070%=      5-min Rain = 0
KCR2 080919Z 05005KT 08/03 A3002 RMK A01 T00780026  RH  070%=      5-min Rain = 0
KCR2 080920Z 06004KT 08/03 A3002 RMK A01 T00760026  RH  071%=      5-min Rain = 0
KCR2 080921Z 05004KT 08/03 A3002 RMK A01 T00750027  RH  072%=      5-min Rain = 0
KCR2 080922Z 05003KT 07/03 A3001 RMK A01 T00740027  RH  072%=      5-min Rain = 0
KCR2 080923Z 06002KT 07/03 A3001 RMK A01 T00740027  RH  072%=      5-min Rain = 0
KCR2 080924Z 07003KT 07/03 A3001 RMK A01 T00740028  RH  073%=      5-min Rain = 0
KCR2 080925Z 07003KT 07/03 A3001 RMK A01 T00740029  RH  073%=      5-min Rain = 0
KCR2 080926Z 08003KT 08/03 A3001 RMK A01 T00750028  RH  072%=      5-min Rain = 0
KCR2 080927Z 09003KT 08/03 A3001 RMK A01 T00750028  RH  072%=      5-min Rain = 0
KCR2 080928Z 09003KT 08/03 A3001 RMK A01 T00750029  RH  072%=      5-min Rain = 0
KCR2 080929Z 09003KT 08/03 A3001 RMK A01 T00760029  RH  072%=      5-min Rain = 0
KCR2 080930Z 09002KT 08/03 A3001 RMK A01 T00760028  RH  072%=      5-min Rain = 0
KCR2 080931Z 08002KT 08/03 A3001 RMK A01 T00760028  RH  072%=      5-min Rain = 0
KCR2 080932Z 07002KT 08/03 A3001 RMK A01 T00760028  RH  072%=      5-min Rain = 0
KCR2 080933Z 05002KT 08/03 A3001 RMK A01 T00760028  RH  072%=      5-min Rain = 0
KCR2 080934Z 04002KT 08/03 A3001 RMK A01 T00750028  RH  072%=      5-min Rain = 0
KCR2 080935Z 03002KT 07/03 A3002 RMK A01 T00740027  RH  072%=      5-min Rain = 0
KCR2 080936Z 04002KT 07/03 A3002 RMK A01 T00740028  RH  073%=      5-min Rain = 0
KCR2 080937Z 03002KT 07/03 A3002 RMK A01 T00740028  RH  073%=      5-min Rain = 0
KCR2 080938Z 04003KT 07/03 A3001 RMK A01 T00730028  RH  073%=      5-min Rain = 0
KCR2 080939Z 04003KT 07/03 A3001 RMK A01 T00730027  RH  073%=      5-min Rain = 0
KCR2 080940Z 04003KT 07/03 A3001 RMK A01 T00720026  RH  073%=      5-min Rain = 0
KCR2 080941Z 05003KT 07/03 A3001 RMK A01 T00710027  RH  073%=      5-min Rain = 0
KCR2 080942Z 04003KT 07/03 A3001 RMK A01 T00710026  RH  073%=      5-min Rain = 0
KCR2 080943Z 02003KT 07/02 A3001 RMK A01 T00700024  RH  073%=      5-min Rain = 0
KCR2 080944Z 03003KT 07/02 A3001 RMK A01 T00680023  RH  073%=      5-min Rain = 0
KCR2 080945Z 03003KT 07/03 A3001 RMK A01 T00670025  RH  074%=      5-min Rain = 0
KCR2 080946Z 03004KT 07/02 A3001 RMK A01 T00670024  RH  074%=      5-min Rain = 0
KCR2 080947Z 03004KT 07/02 A3001 RMK A01 T00660024  RH  075%=      5-min Rain = 0
KCR2 080948Z 03004KT 07/03 A3001 RMK A01 T00660026  RH  076%=      5-min Rain = 0
KCR2 080949Z 04003KT 07/03 A3001 RMK A01 T00660026  RH  076%=      5-min Rain = 0
KCR2 080950Z 05003KT 07/03 A30 RMK A01 T00660026  RH  076%=      5-min Rain = 0
KCR2 080951Z 06003KT 07/03 A30 RMK A01 T00660026  RH  076%=      5-min Rain = 0
KCR2 080952Z 05003KT 07/03 A30 RMK A01 T00650026  RH  076%=      5-min Rain = 0
KCR2 080953Z 05003KT 07/03 A30 RMK A01 T00650026  RH  076%=      5-min Rain = 0
KCR2 080954Z 05003KT 07/03 A30 RMK A01 T00650026  RH  076%=      5-min Rain = 0
KCR2 080955Z 06004KT 07/03 A30 RMK A01 T00650026  RH  076%=      5-min Rain = 0
KCR2 080956Z 06004KT 07/03 A30 RMK A01 T00650027  RH  077%=      5-min Rain = 0
KCR2 080957Z 07003KT 07/03 A30 RMK A01 T00650028  RH  077%=      5-min Rain = 0
KCR2 080958Z 06003KT 07/03 A30 RMK A01 T00660027  RH  076%=      5-min Rain = 0
KCR2 080959Z 06002KT 07/03 A30 RMK A01 T00660026  RH  076%=      5-min Rain = 0
KCR2 081000Z 06003KT 07/03 A30 RMK A01 T00660026  RH  076%=      5-min Rain = 0
KCR2 081001Z 06003KT 07/03 A30 RMK A01 T00660027  RH  076%=      5-min Rain = 0
KCR2 081002Z 06004KT 07/03 A30 RMK A01 T00660027  RH  076%=      5-min Rain = 0
KCR2 081003Z 06004KT 07/03 A30 RMK A01 T00660028  RH  077%=      5-min Rain = 0
KCR2 081004Z 07004KT 07/03 A30 RMK A01 T00670028  RH  076%=      5-min Rain = 0
KCR2 081005Z 06004KT 07/03 A30 RMK A01 T00680029  RH  076%=      5-min Rain = 0
KCR2 081006Z 06004KT 07/03 A3001 RMK A01 T00680028  RH  076%=      5-min Rain = 0
KCR2 081007Z 05004KT 07/03 A3001 RMK A01 T00690028  RH  075%=      5-min Rain = 0
KCR2 081008Z 05003KT 07/03 A3001 RMK A01 T00680028  RH  075%=      5-min Rain = 0
KCR2 081009Z 05003KT 07/03 A3001 RMK A01 T00680028  RH  076%=      5-min Rain = 0
KCR2 081010Z 04002KT 07/03 A3001 RMK A01 T00670026  RH  075%=      5-min Rain = 0
KCR2 081011Z 05003KT 07/03 A3001 RMK A01 T00660025  RH  075%=      5-min Rain = 0
KCR2 081012Z 05003KT 07/03 A30 RMK A01 T00650026  RH  076%=      5-min Rain = 0
KCR2 081013Z 05003KT 07/03 A3001 RMK A01 T00650027  RH  077%=      5-min Rain = 0
KCR2 081014Z 04003KT 07/03 A3001 RMK A01 T00650028  RH  077%=      5-min Rain = 0
KCR2 081015Z 05003KT 07/03 A3001 RMK A01 T00660029  RH  077%=      5-min Rain = 0
KCR2 081016Z 06003KT 07/03 A3001 RMK A01 T00670028  RH  076%=      5-min Rain = 0
KCR2 081017Z 06004KT 07/03 A30 RMK A01 T00670029  RH  077%=      5-min Rain = 0
KCR2 081018Z 05004KT 07/03 A30 RMK A01 T00670029  RH  076%=      5-min Rain = 0
KCR2 081019Z 05003KT 07/03 A30 RMK A01 T00670028  RH  076%=      5-min Rain = 0
KCR2 081020Z 05003KT 07/03 A30 RMK A01 T00680028  RH  076%=      5-min Rain = 0
KCR2 081021Z 04003KT 07/03 A30 RMK A01 T00680028  RH  076%=      5-min Rain = 0
KCR2 081022Z 05003KT 07/03 A30 RMK A01 T00670029  RH  076%=      5-min Rain = 0
KCR2 081023Z 05003KT 07/03 A30 RMK A01 T00670028  RH  076%=      5-min Rain = 0
KCR2 081024Z 04003KT 07/03 A30 RMK A01 T00670028  RH  076%=      5-min Rain = 0
KCR2 081025Z 05003KT 07/03 A30 RMK A01 T00670029  RH  076%=      5-min Rain = 0
KCR2 081026Z 05003KT 07/03 A30 RMK A01 T00680028  RH  076%=      5-min Rain = 0
KCR2 081027Z 04002KT 07/03 A30 RMK A01 T00670026  RH  075%=      5-min Rain = 0
KCR2 081028Z 03003KT 07/03 A30 RMK A01 T00660026  RH  075%=      5-min Rain = 0
KCR2 081029Z 03003KT 07/03 A30 RMK A01 T00660026  RH  076%=      5-min Rain = 0
KCR2 081030Z 04003KT 07/03 A30 RMK A01 T00660027  RH  076%=      5-min Rain = 0
KCR2 081031Z 04003KT 07/03 A30 RMK A01 T00650026  RH  076%=      5-min Rain = 0
KCR2 081032Z 03003KT 06/03 A30 RMK A01 T00640026  RH  076%=      5-min Rain = 0
KCR2 081033Z 04003KT 06/03 A30 RMK A01 T00640026  RH  076%=      5-min Rain = 0
KCR2 081034Z 04003KT 06/03 A30 RMK A01 T00630025  RH  077%=      5-min Rain = 0
KCR2 081035Z 04003KT 06/03 A30 RMK A01 T00620025  RH  077%=      5-min Rain = 0
KCR2 081036Z 03003KT 06/02 A3001 RMK A01 T00620024  RH  077%=      5-min Rain = 0
KCR2 081037Z 04004KT 06/02 A3001 RMK A01 T00610023  RH  077%=      5-min Rain = 0
KCR2 081038Z 04003KT 06/02 A3001 RMK A01 T00600023  RH  077%=      5-min Rain = 0
KCR2 081039Z 05004KT 06/02 A3001 RMK A01 T00600024  RH  078%=      5-min Rain = 0
KCR2 081040Z 05004KT 06/02 A30 RMK A01 T00600024  RH  078%=      5-min Rain = 0
KCR2 081041Z 05004KT 06/02 A30 RMK A01 T00600024  RH  078%=      5-min Rain = 0
KCR2 081042Z 05004KT 06/03 A30 RMK A01 T00600025  RH  078%=      5-min Rain = 0
KCR2 081043Z 05003KT 06/02 A30 RMK A01 T00600024  RH  078%=      5-min Rain = 0
KCR2 081044Z 05003KT 06/02 A30 RMK A01 T00590023  RH  078%=      5-min Rain = 0
KCR2 081045Z 05003KT 06/02 A30 RMK A01 T00590022  RH  077%=      5-min Rain = 0
KCR2 081046Z 05003KT 06/02 A30 RMK A01 T00580023  RH  078%=      5-min Rain = 0
KCR2 081047Z 05003KT 06/03 A30 RMK A01 T00580025  RH  079%=      5-min Rain = 0
KCR2 081048Z 05003KT 06/03 A30 RMK A01 T00590026  RH  080%=      5-min Rain = 0
KCR2 081049Z 05003KT 06/03 A30 RMK A01 T00600027  RH  079%=      5-min Rain = 0
KCR2 081050Z 05003KT 06/03 A30 RMK A01 T00600027  RH  079%=      5-min Rain = 0
KCR2 081051Z 05003KT 06/03 A30 RMK A01 T00610027  RH  079%=      5-min Rain = 0
KCR2 081052Z 05003KT 06/03 A30 RMK A01 T00610026  RH  079%=      5-min Rain = 0
KCR2 081053Z 05003KT 06/03 A30 RMK A01 T00610026  RH  079%=      5-min Rain = 0
KCR2 081054Z 05003KT 06/03 A30 RMK A01 T00610027  RH  079%=      5-min Rain = 0
KCR2 081055Z 05002KT 06/03 A30 RMK A01 T00610027  RH  079%=      5-min Rain = 0
KCR2 081056Z 07002KT 06/03 A30 RMK A01 T00610026  RH  078%=      5-min Rain = 0
KCR2 081057Z 05002KT 06/03 A30 RMK A01 T00610026  RH  078%=      5-min Rain = 0
KCR2 081058Z 06002KT 06/03 A30 RMK A01 T00610027  RH  079%=      5-min Rain = 0
KCR2 081059Z 05002KT 06/03 A30 RMK A01 T00610026  RH  078%=      5-min Rain = 0
KCR2 081100Z 04003KT 06/03 A30 RMK A01 T00620027  RH  078%=      5-min Rain = 0
KCR2 081101Z 03003KT 06/03 A30 RMK A01 T00620027  RH  078%=      5-min Rain = 0
KCR2 081102Z 03002KT 06/02 A30 RMK A01 T00610024  RH  077%=      5-min Rain = 0
KCR2 081103Z 04002KT 06/02 A30 RMK A01 T00600022  RH  076%=      5-min Rain = 0
KCR2 081104Z 04002KT 06/02 A30 RMK A01 T00590022  RH  077%=      5-min Rain = 0
KCR2 081105Z 05003KT 06/02 A30 RMK A01 T00590024  RH  078%=      5-min Rain = 0
KCR2 081106Z 06003KT 06/03 A30 RMK A01 T00590025  RH  079%=      5-min Rain = 0
KCR2 081107Z 06003KT 06/03 A2999 RMK A01 T00600025  RH  078%=      5-min Rain = 0
KCR2 081108Z 06003KT 06/02 A2999 RMK A01 T00600024  RH  078%=      5-min Rain = 0
KCR2 081109Z 08003KT 06/03 A2999 RMK A01 T00590025  RH  079%=      5-min Rain = 0
KCR2 081110Z 08002KT 06/03 A2999 RMK A01 T00590025  RH  079%=      5-min Rain = 0
KCR2 081111Z 08003KT 06/02 A2999 RMK A01 T00590024  RH  078%=      5-min Rain = 0
KCR2 081112Z 08002KT 06/03 A2999 RMK A01 T00590025  RH  079%=      5-min Rain = 0
KCR2 081113Z 08002KT 06/02 A2999 RMK A01 T00590024  RH  078%=      5-min Rain = 0
KCR2 081114Z 06002KT 06/03 A30 RMK A01 T00590025  RH  078%=      5-min Rain = 0
KCR2 081115Z 06002KT 06/03 A30 RMK A01 T00600025  RH  078%=      5-min Rain = 0
KCR2 081116Z 06002KT 06/02 A30 RMK A01 T00590024  RH  078%=      5-min Rain = 0
KCR2 081117Z 06002KT 06/02 A30 RMK A01 T00590024  RH  078%=      5-min Rain = 0
KCR2 081118Z 05002KT 06/02 A30 RMK A01 T00590024  RH  078%=      5-min Rain = 0
KCR2 081119Z 05002KT 06/02 A2999 RMK A01 T00590024  RH  079%=      5-min Rain = 0
KCR2 081120Z 06001KT 06/02 A2999 RMK A01 T00580024  RH  079%=      5-min Rain = 0
KCR2 081121Z 06002KT 06/02 A2999 RMK A01 T00580024  RH  079%=      5-min Rain = 0
KCR2 081122Z 05002KT 06/02 A30 RMK A01 T00580024  RH  079%=      5-min Rain = 0
KCR2 081123Z 05001KT 06/03 A30 RMK A01 T00580025  RH  079%=      5-min Rain = 0
KCR2 081124Z 05001KT 06/03 A30 RMK A01 T00580025  RH  079%=      5-min Rain = 0
KCR2 081125Z 05002KT 06/03 A30 RMK A01 T00580025  RH  079%=      5-min Rain = 0
KCR2 081126Z 05002KT 06/03 A30 RMK A01 T00580026  RH  079%=      5-min Rain = 0
KCR2 081127Z 05002KT 06/03 A30 RMK A01 T00590026  RH  079%=      5-min Rain = 0
KCR2 081128Z 06003KT 06/03 A30 RMK A01 T00590027  RH  080%=      5-min Rain = 0
KCR2 081129Z 06002KT 06/03 A30 RMK A01 T00600028  RH  080%=      5-min Rain = 0
KCR2 081130Z 05002KT 06/03 A30 RMK A01 T00600026  RH  079%=      5-min Rain = 0
KCR2 081131Z 04002KT 06/03 A30 RMK A01 T00600025  RH  078%=      5-min Rain = 0
KCR2 081132Z 03002KT 06/03 A30 RMK A01 T00600026  RH  079%=      5-min Rain = 0
KCR2 081133Z 03002KT 06/03 A30 RMK A01 T00600027  RH  079%=      5-min Rain = 0
KCR2 081134Z 05002KT 06/03 A30 RMK A01 T00610027  RH  079%=      5-min Rain = 0
KCR2 081135Z 05002KT 06/03 A30 RMK A01 T00610027  RH  079%=      5-min Rain = 0
KCR2 081136Z 05002KT 06/03 A30 RMK A01 T00600026  RH  079%=      5-min Rain = 0
KCR2 081137Z 07001KT 06/02 A30 RMK A01 T00600024  RH  078%=      5-min Rain = 0
KCR2 081138Z 08001KT 06/02 A30 RMK A01 T00590024  RH  078%=      5-min Rain = 0
KCR2 081139Z 07002KT 06/02 A30 RMK A01 T00580023  RH  078%=      5-min Rain = 0
KCR2 081140Z 07002KT 06/03 A30 RMK A01 T00580025  RH  079%=      5-min Rain = 0
KCR2 081141Z 05002KT 06/03 A30 RMK A01 T00580025  RH  079%=      5-min Rain = 0
KCR2 081142Z 05001KT 06/03 A30 RMK A01 T00580025  RH  079%=      5-min Rain = 0
KCR2 081143Z 06001KT 06/02 A30 RMK A01 T00580024  RH  079%=      5-min Rain = 0
KCR2 081144Z 06001KT 06/03 A30 RMK A01 T00580025  RH  079%=      5-min Rain = 0
KCR2 081145Z 06001KT 06/03 A30 RMK A01 T00580025  RH  079%=      5-min Rain = 0
KCR2 081146Z 00000KT 06/03 A2999 RMK A01 T00580025  RH  079%=      5-min Rain = 0
KCR2 081147Z 13001KT 06/02 A30 RMK A01 T00580023  RH  078%=      5-min Rain = 0
KCR2 081148Z 11000KT 06/02 A2999 RMK A01 T00580024  RH  078%=      5-min Rain = 0
KCR2 081149Z 13001KT 06/02 A2999 RMK A01 T00590024  RH  078%=      5-min Rain = 0
KCR2 081150Z 13001KT 06/03 A2999 RMK A01 T00590026  RH  079%=      5-min Rain = 0
KCR2 081151Z 15000KT 06/03 A2999 RMK A01 T00600026  RH  079%=      5-min Rain = 0
KCR2 081152Z 17000KT 06/03 A2999 RMK A01 T00610026  RH  078%=      5-min Rain = 0
KCR2 081153Z 13001KT 06/03 A2999 RMK A01 T00610026  RH  078%=      5-min Rain = 0
KCR2 081154Z 16000KT 06/03 A2999 RMK A01 T00610025  RH  078%=      5-min Rain = 0
KCR2 081155Z 15001KT 06/02 A2999 RMK A01 T00610024  RH  077%=      5-min Rain = 0
KCR2 081156Z 10001KT 06/02 A2999 RMK A01 T00610023  RH  076%=      5-min Rain = 0
KCR2 081157Z 03001KT 06/02 A2999 RMK A01 T00610022  RH  076%=      5-min Rain = 0
KCR2 081158Z 03001KT 06/02 A2999 RMK A01 T00600022  RH  076%=      5-min Rain = 0
KCR2 081159Z 01002KT 06/02 A2999 RMK A01 T00600022  RH  077%=      5-min Rain = 0
KCR2 081200Z 01003KT 06/02 A2999 RMK A01 T00590021  RH  077%=      5-min Rain = 0
KCR2 081201Z 02002KT 06/02 A2999 RMK A01 T00580021  RH  077%=      5-min Rain = 0
KCR2 081202Z 03001KT 06/02 A2999 RMK A01 T00570020  RH  077%=      5-min Rain = 0
KCR2 081203Z 36002KT 06/02 A2999 RMK A01 T00560020  RH  078%=      5-min Rain = 0
KCR2 081204Z 01002KT 06/02 A2999 RMK A01 T00550022  RH  079%=      5-min Rain = 0
KCR2 081205Z 01002KT 06/02 A2999 RMK A01 T00550022  RH  079%=      5-min Rain = 0
KCR2 081206Z 01003KT 06/02 A2999 RMK A01 T00550023  RH  080%=      5-min Rain = 0
KCR2 081207Z 00003KT 06/02 A2999 RMK A01 T00560023  RH  079%=      5-min Rain = 0
KCR2 081208Z 01004KT 06/02 A2999 RMK A01 T00560022  RH  079%=      5-min Rain = 0
KCR2 081209Z 01004KT 06/02 A2999 RMK A01 T00560023  RH  079%=      5-min Rain = 0
KCR2 081210Z 01004KT 06/02 A2999 RMK A01 T00560023  RH  079%=      5-min Rain = 0
KCR2 081211Z 02004KT 06/02 A2999 RMK A01 T00560023  RH  080%=      5-min Rain = 0
KCR2 081212Z 02004KT 06/02 A2999 RMK A01 T00560024  RH  080%=      5-min Rain = 0
KCR2 081213Z 01004KT 06/02 A2999 RMK A01 T00560023  RH  080%=      5-min Rain = 0
KCR2 081214Z 02003KT 06/02 A2999 RMK A01 T00560024  RH  080%=      5-min Rain = 0
KCR2 081215Z 03003KT 06/02 A2999 RMK A01 T00560024  RH  080%=      5-min Rain = 0
KCR2 081216Z 02003KT 06/03 A2999 RMK A01 T00570025  RH  080%=      5-min Rain = 0
KCR2 081217Z 01004KT 06/03 A2999 RMK A01 T00580025  RH  080%=      5-min Rain = 0
KCR2 081218Z 01004KT 06/03 A2999 RMK A01 T00580025  RH  079%=      5-min Rain = 0
KCR2 081219Z 03002KT 06/03 A2999 RMK A01 T00590025  RH  079%=      5-min Rain = 0
KCR2 081220Z 03002KT 06/03 A2999 RMK A01 T00590026  RH  079%=      5-min Rain = 0
KCR2 081221Z 03002KT 06/03 A2999 RMK A01 T00600026  RH  079%=      5-min Rain = 0
KCR2 081222Z 01002KT 06/03 A2999 RMK A01 T00600026  RH  079%=      5-min Rain = 0
KCR2 081223Z 01002KT 06/03 A2999 RMK A01 T00610026  RH  079%=      5-min Rain = 0
KCR2 081224Z 02003KT 06/03 A2999 RMK A01 T00610026  RH  079%=      5-min Rain = 0
KCR2 081225Z 03002KT 06/03 A2999 RMK A01 T00610027  RH  079%=      5-min Rain = 0
KCR2 081226Z 02003KT 06/03 A2999 RMK A01 T00610027  RH  079%=      5-min Rain = 0
KCR2 081227Z 02003KT 06/03 A2999 RMK A01 T00620028  RH  079%=      5-min Rain = 0
KCR2 081228Z 01003KT 06/03 A30 RMK A01 T00620028  RH  078%=      5-min Rain = 0
KCR2 081229Z 01003KT 06/03 A30 RMK A01 T00630028  RH  078%=      5-min Rain = 0
KCR2 081230Z 01004KT 06/03 A30 RMK A01 T00630028  RH  078%=      5-min Rain = 0
KCR2 081231Z 01004KT 06/03 A30 RMK A01 T00640028  RH  078%=      5-min Rain = 0
KCR2 081232Z 01004KT 06/03 A30 RMK A01 T00630027  RH  078%=      5-min Rain = 0
KCR2 081233Z 01004KT 06/03 A30 RMK A01 T00630027  RH  078%=      5-min Rain = 0
KCR2 081234Z 01004KT 06/03 A30 RMK A01 T00630027  RH  078%=      5-min Rain = 0
KCR2 081235Z 01004KT 06/03 A30 RMK A01 T00630027  RH  078%=      5-min Rain = 0
KCR2 081236Z 01004KT 06/03 A30 RMK A01 T00630027  RH  078%=      5-min Rain = 0
KCR2 081237Z 01003KT 06/03 A30 RMK A01 T00620026  RH  078%=      5-min Rain = 0
KCR2 081238Z 02003KT 06/03 A30 RMK A01 T00620026  RH  078%=      5-min Rain = 0
KCR2 081239Z 03002KT 06/03 A30 RMK A01 T00610026  RH  078%=      5-min Rain = 0
KCR2 081240Z 03002KT 06/03 A30 RMK A01 T00610026  RH  078%=      5-min Rain = 0
KCR2 081241Z 04003KT 06/03 A30 RMK A01 T00610026  RH  078%=      5-min Rain = 0
KCR2 081242Z 04003KT 06/03 A30 RMK A01 T00610026  RH  079%=      5-min Rain = 0
KCR2 081243Z 04003KT 06/03 A30 RMK A01 T00610027  RH  079%=      5-min Rain = 0
KCR2 081244Z 04003KT 06/03 A30 RMK A01 T00610027  RH  079%=      5-min Rain = 0
KCR2 081245Z 05002KT 06/03 A30 RMK A01 T00610026  RH  078%=      5-min Rain = 0
KCR2 081246Z 05002KT 06/03 A30 RMK A01 T00610026  RH  078%=      5-min Rain = 0
KCR2 081247Z 03001KT 06/03 A30 RMK A01 T00610027  RH  079%=      5-min Rain = 0
KCR2 081248Z 06001KT 06/03 A30 RMK A01 T00610026  RH  079%=      5-min Rain = 0
KCR2 081249Z 04002KT 06/03 A30 RMK A01 T00610026  RH  079%=      5-min Rain = 0
KCR2 081250Z 00004KT 06/03 A30 RMK A01 T00610028  RH  079%=      5-min Rain = 0
KCR2 081251Z 04002KT 06/03 A30 RMK A01 T00610027  RH  079%=      5-min Rain = 0
KCR2 081252Z 04002KT 06/03 A30 RMK A01 T00620027  RH  079%=      5-min Rain = 0
KCR2 081253Z 34004KT 07/03 A30 RMK A01 T00650032  RH  079%=      5-min Rain = 0
KCR2 081254Z 35003KT 07/03 A30 RMK A01 T00690032  RH  077%=      5-min Rain = 0
KCR2 081255Z 02002KT 07/03 A30 RMK A01 T00700030  RH  076%=      5-min Rain = 0
KCR2 081256Z 05001KT 07/03 A30 RMK A01 T00700029  RH  075%=      5-min Rain = 0
KCR2 081257Z 03001KT 07/03 A30 RMK A01 T00700029  RH  075%=      5-min Rain = 0
KCR2 081258Z 03002KT 07/03 A30 RMK A01 T00690028  RH  075%=      5-min Rain = 0
KCR2 081259Z 05000KT 07/03 A3001 RMK A01 T00680027  RH  075%=      5-min Rain = 0
KCR2 081300Z 00000KT 07/03 A3001 RMK A01 T00670026  RH  075%=      5-min Rain = 0
KCR2 081301Z 05001KT 07/03 A3001 RMK A01 T00660026  RH  076%=      5-min Rain = 0
KCR2 081302Z 06001KT 07/03 A3001 RMK A01 T00660026  RH  076%=      5-min Rain = 0
KCR2 081303Z 06001KT 07/03 A3001 RMK A01 T00650027  RH  076%=      5-min Rain = 0
KCR2 081304Z 08000KT 07/03 A3001 RMK A01 T00650026  RH  076%=      5-min Rain = 0
KCR2 081305Z 00000KT 06/03 A3001 RMK A01 T00640026  RH  076%=      5-min Rain = 0
KCR2 081306Z 10000KT 06/03 A3001 RMK A01 T00640026  RH  076%=      5-min Rain = 0
KCR2 081307Z 10001KT 06/03 A3001 RMK A01 T00630026  RH  077%=      5-min Rain = 0
KCR2 081308Z 11001KT 06/03 A3001 RMK A01 T00630026  RH  077%=      5-min Rain = 0
KCR2 081309Z 08001KT 06/03 A3001 RMK A01 T00630026  RH  077%=      5-min Rain = 0
KCR2 081310Z 08001KT 06/03 A3001 RMK A01 T00620026  RH  077%=      5-min Rain = 0
KCR2 081311Z 09001KT 06/03 A30 RMK A01 T00620026  RH  077%=      5-min Rain = 0
KCR2 081312Z 07002KT 06/03 A30 RMK A01 T00620025  RH  077%=      5-min Rain = 0
KCR2 081313Z 05002KT 06/03 A30 RMK A01 T00610026  RH  078%=      5-min Rain = 0
KCR2 081314Z 06001KT 06/03 A30 RMK A01 T00620026  RH  078%=      5-min Rain = 0
KCR2 081315Z 07002KT 06/03 A30 RMK A01 T00620027  RH  078%=      5-min Rain = 0
KCR2 081316Z 06003KT 06/03 A3001 RMK A01 T00620026  RH  078%=      5-min Rain = 0
KCR2 081317Z 05002KT 06/03 A3001 RMK A01 T00610027  RH  078%=      5-min Rain = 0
KCR2 081318Z 08002KT 06/03 A3001 RMK A01 T00620026  RH  078%=      5-min Rain = 0
KCR2 081319Z 06003KT 06/02 A3001 RMK A01 T00610024  RH  078%=      5-min Rain = 0
KCR2 081320Z 05003KT 06/03 A3001 RMK A01 T00610026  RH  079%=      5-min Rain = 0
KCR2 081321Z 14003KT 06/03 A3001 RMK A01 T00610026  RH  078%=      5-min Rain = 0
KCR2 081322Z 01003KT 06/03 A3001 RMK A01 T00630031  RH  080%=      5-min Rain = 0
KCR2 081323Z 03002KT 07/03 A3001 RMK A01 T00670032  RH  079%=      5-min Rain = 0
KCR2 081324Z 35001KT 07/03 A3001 RMK A01 T00690032  RH  077%=      5-min Rain = 0
KCR2 081325Z 33000KT 07/03 A3001 RMK A01 T00700032  RH  077%=      5-min Rain = 0
KCR2 081326Z 02000KT 07/03 A3001 RMK A01 T00710031  RH  076%=      5-min Rain = 0
KCR2 081327Z 01001KT 07/03 A3001 RMK A01 T00710030  RH  075%=      5-min Rain = 0
KCR2 081328Z 36002KT 07/03 A3001 RMK A01 T00710030  RH  075%=      5-min Rain = 0
KCR2 081329Z 03001KT 07/03 A3001 RMK A01 T00710030  RH  075%=      5-min Rain = 0
KCR2 081330Z 05001KT 07/03 A3001 RMK A01 T00700030  RH  076%=      5-min Rain = 0
KCR2 081331Z 02001KT 07/03 A3001 RMK A01 T00700030  RH  076%=      5-min Rain = 0
KCR2 081332Z 02002KT 07/03 A3001 RMK A01 T00700030  RH  075%=      5-min Rain = 0
KCR2 081333Z 04002KT 07/03 A3001 RMK A01 T00700029  RH  075%=      5-min Rain = 0
KCR2 081334Z 05001KT 07/03 A3001 RMK A01 T00690028  RH  075%=      5-min Rain = 0
KCR2 081335Z 03001KT 07/03 A3001 RMK A01 T00680027  RH  075%=      5-min Rain = 0
KCR2 081336Z 04002KT 07/03 A3001 RMK A01 T00670028  RH  076%=      5-min Rain = 0
KCR2 081337Z 07002KT 07/03 A3001 RMK A01 T00660027  RH  076%=      5-min Rain = 0
KCR2 081338Z 09002KT 07/03 A3001 RMK A01 T00650026  RH  076%=      5-min Rain = 0
KCR2 081339Z 08003KT 06/03 A3001 RMK A01 T00640026  RH  077%=      5-min Rain = 0
KCR2 081340Z 07003KT 06/03 A3001 RMK A01 T00630027  RH  077%=      5-min Rain = 0
KCR2 081341Z 07003KT 06/03 A3001 RMK A01 T00630027  RH  078%=      5-min Rain = 0
KCR2 081342Z 08002KT 06/03 A3001 RMK A01 T00630026  RH  077%=      5-min Rain = 0
KCR2 081343Z 07003KT 06/03 A3001 RMK A01 T00620026  RH  078%=      5-min Rain = 0
KCR2 081344Z 07002KT 06/03 A3001 RMK A01 T00630027  RH  078%=      5-min Rain = 0
KCR2 081345Z 07002KT 06/03 A3001 RMK A01 T00620026  RH  077%=      5-min Rain = 0
KCR2 081346Z 08003KT 06/03 A3001 RMK A01 T00620026  RH  078%=      5-min Rain = 0
KCR2 081347Z 09002KT 06/03 A3001 RMK A01 T00610026  RH  078%=      5-min Rain = 0
KCR2 081348Z 09003KT 06/03 A3001 RMK A01 T00610026  RH  078%=      5-min Rain = 0
KCR2 081349Z 10003KT 06/03 A3001 RMK A01 T00610027  RH  079%=      5-min Rain = 0
KCR2 081350Z 09002KT 06/03 A3001 RMK A01 T00610028  RH  079%=      5-min Rain = 0
KCR2 081351Z 07002KT 06/03 A3001 RMK A01 T00620028  RH  079%=      5-min Rain = 0
KCR2 081352Z 08003KT 06/03 A3001 RMK A01 T00630028  RH  079%=      5-min Rain = 0
KCR2 081353Z 09003KT 06/03 A3001 RMK A01 T00630028  RH  078%=      5-min Rain = 0
KCR2 081354Z 08003KT 06/03 A3001 RMK A01 T00630028  RH  078%=      5-min Rain = 0
KCR2 081355Z 08003KT 06/03 A3001 RMK A01 T00630028  RH  078%=      5-min Rain = 0
KCR2 081356Z 09003KT 06/03 A3001 RMK A01 T00640028  RH  078%=      5-min Rain = 0
KCR2 081357Z 08003KT 06/03 A3001 RMK A01 T00640029  RH  078%=      5-min Rain = 0
KCR2 081358Z 08003KT 07/03 A3001 RMK A01 T00650029  RH  078%=      5-min Rain = 0
KCR2 081359Z 09003KT 07/03 A3001 RMK A01 T00650029  RH  078%=      5-min Rain = 0
KCR2 081400Z 09002KT 07/03 A3001 RMK A01 T00660029  RH  077%=      5-min Rain = 0
KCR2 081401Z 09002KT 07/03 A3001 RMK A01 T00660029  RH  077%=      5-min Rain = 0
KCR2 081402Z 09002KT 07/03 A3001 RMK A01 T00670029  RH  077%=      5-min Rain = 0
KCR2 081403Z 11002KT 07/03 A3001 RMK A01 T00680031  RH  077%=      5-min Rain = 0
KCR2 081404Z 11002KT 07/03 A3001 RMK A01 T00690031  RH  077%=      5-min Rain = 0
KCR2 081405Z 11003KT 07/03 A3001 RMK A01 T00690030  RH  076%=      5-min Rain = 0
KCR2 081406Z 11003KT 07/03 A3001 RMK A01 T00690030  RH  076%=      5-min Rain = 0
KCR2 081407Z 11003KT 07/03 A3001 RMK A01 T00690030  RH  076%=      5-min Rain = 0
KCR2 081408Z 12003KT 07/03 A3001 RMK A01 T00700031  RH  076%=      5-min Rain = 0
KCR2 081409Z 12003KT 07/03 A3001 RMK A01 T00710032  RH  076%=      5-min Rain = 0
KCR2 081410Z 11003KT 07/03 A3001 RMK A01 T00710032  RH  076%=      5-min Rain = 0
KCR2 081411Z 10003KT 07/03 A3001 RMK A01 T00720033  RH  076%=      5-min Rain = 0
KCR2 081412Z 10003KT 07/03 A3001 RMK A01 T00730033  RH  076%=      5-min Rain = 0
KCR2 081413Z 11002KT 07/03 A3001 RMK A01 T00730034  RH  076%=      5-min Rain = 0
KCR2 081414Z 10002KT 07/03 A3001 RMK A01 T00740034  RH  076%=      5-min Rain = 0
KCR2 081415Z 10002KT 08/03 A3001 RMK A01 T00750034  RH  076%=      5-min Rain = 0
KCR2 081416Z 10002KT 08/03 A3001 RMK A01 T00750034  RH  075%=      5-min Rain = 0
KCR2 081417Z 10001KT 08/04 A3001 RMK A01 T00750035  RH  075%=      5-min Rain = 0
KCR2 081418Z 11002KT 08/04 A3001 RMK A01 T00760035  RH  075%=      5-min Rain = 0
KCR2 081419Z 09002KT 08/04 A3001 RMK A01 T00760035  RH  075%=      5-min Rain = 0
KCR2 081420Z 09002KT 08/04 A3001 RMK A01 T00770035  RH  075%=      5-min Rain = 0
KCR2 081421Z 09002KT 08/04 A3001 RMK A01 T00770036  RH  075%=      5-min Rain = 0
KCR2 081422Z 08002KT 08/04 A3001 RMK A01 T00780036  RH  075%=      5-min Rain = 0
KCR2 081423Z 10002KT 08/04 A3001 RMK A01 T00770035  RH  075%=      5-min Rain = 0
KCR2 081424Z 10002KT 08/04 A3001 RMK A01 T00780036  RH  075%=      5-min Rain = 0
KCR2 081425Z 08002KT 08/04 A3001 RMK A01 T00780036  RH  075%=      5-min Rain = 0
KCR2 081426Z 07002KT 08/04 A3001 RMK A01 T00790037  RH  075%=      5-min Rain = 0
KCR2 081427Z 06002KT 08/04 A3001 RMK A01 T00790037  RH  075%=      5-min Rain = 0
KCR2 081428Z 06002KT 08/04 A3001 RMK A01 T00800037  RH  075%=      5-min Rain = 0
KCR2 081429Z 07002KT 08/04 A3001 RMK A01 T00800037  RH  074%=      5-min Rain = 0
KCR2 081430Z 07002KT 08/04 A3001 RMK A01 T00810038  RH  074%=      5-min Rain = 0
KCR2 081431Z 06002KT 08/04 A3001 RMK A01 T00810038  RH  074%=      5-min Rain = 0
KCR2 081432Z 06002KT 08/04 A3001 RMK A01 T00820038  RH  074%=      5-min Rain = 0
KCR2 081433Z 06002KT 08/04 A3001 RMK A01 T00820038  RH  074%=      5-min Rain = 0
KCR2 081434Z 06001KT 08/04 A3001 RMK A01 T00830039  RH  073%=      5-min Rain = 0
KCR2 081435Z 06001KT 08/04 A3001 RMK A01 T00840039  RH  073%=      5-min Rain = 0
KCR2 081436Z 04002KT 08/04 A3001 RMK A01 T00840038  RH  073%=      5-min Rain = 0
KCR2 081437Z 02002KT 09/04 A3001 RMK A01 T00850039  RH  073%=      5-min Rain = 0
KCR2 081438Z 02001KT 09/04 A3001 RMK A01 T00850040  RH  073%=      5-min Rain = 0
KCR2 081439Z 02001KT 09/04 A3001 RMK A01 T00860040  RH  073%=      5-min Rain = 0
KCR2 081440Z 02000KT 09/04 A3001 RMK A01 T00870040  RH  072%=      5-min Rain = 0
KCR2 081441Z 05000KT 09/04 A3001 RMK A01 T00870039  RH  072%=      5-min Rain = 0
KCR2 081442Z 07001KT 09/04 A3001 RMK A01 T00870039  RH  072%=      5-min Rain = 0
KCR2 081443Z 07001KT 09/04 A3001 RMK A01 T00880039  RH  072%=      5-min Rain = 0
KCR2 081444Z 05002KT 09/04 A3001 RMK A01 T00880039  RH  071%=      5-min Rain = 0
KCR2 081445Z 05001KT 09/04 A3001 RMK A01 T00890040  RH  071%=      5-min Rain = 0
KCR2 081446Z 05001KT 09/04 A3001 RMK A01 T00890040  RH  071%=      5-min Rain = 0
KCR2 081447Z 04001KT 09/04 A3001 RMK A01 T00900040  RH  071%=      5-min Rain = 0
KCR2 081448Z 06001KT 09/04 A3001 RMK A01 T00900040  RH  071%=      5-min Rain = 0
KCR2 081449Z 05001KT 09/04 A3001 RMK A01 T00900040  RH  071%=      5-min Rain = 0
KCR2 081450Z 05001KT 09/04 A3001 RMK A01 T00900039  RH  070%=      5-min Rain = 0
KCR2 081451Z 05001KT 09/04 A3001 RMK A01 T00900038  RH  070%=      5-min Rain = 0
KCR2 081452Z 03001KT 09/04 A3001 RMK A01 T00910040  RH  070%=      5-min Rain = 0
KCR2 081453Z 03002KT 09/04 A3001 RMK A01 T00910040  RH  070%=      5-min Rain = 0
KCR2 081454Z 03002KT 09/04 A3001 RMK A01 T00910040  RH  070%=      5-min Rain = 0
KCR2 081455Z 03003KT 09/04 A3001 RMK A01 T00920041  RH  070%=      5-min Rain = 0
KCR2 081456Z 03002KT 09/04 A3001 RMK A01 T00930041  RH  070%=      5-min Rain = 0
KCR2 081457Z 05003KT 09/04 A3001 RMK A01 T00930040  RH  070%=      5-min Rain = 0
KCR2 081458Z 04002KT 09/04 A3001 RMK A01 T00930040  RH  070%=      5-min Rain = 0
KCR2 081459Z 03002KT 09/04 A3001 RMK A01 T00940042  RH  070%=      5-min Rain = 0
KCR2 081500Z 02002KT 09/04 A3001 RMK A01 T00940041  RH  069%=      5-min Rain = 0
KCR2 081501Z 03002KT 10/04 A3001 RMK A01 T00950041  RH  069%=      5-min Rain = 0
KCR2 081502Z 04003KT 10/04 A3001 RMK A01 T00950041  RH  069%=      5-min Rain = 0
KCR2 081503Z 03003KT 10/04 A3001 RMK A01 T00960040  RH  068%=      5-min Rain = 0
KCR2 081504Z 02002KT 10/04 A3001 RMK A01 T00960040  RH  068%=      5-min Rain = 0
KCR2 081505Z 03003KT 10/04 A3001 RMK A01 T00960041  RH  068%=      5-min Rain = 0
KCR2 081506Z 03002KT 10/04 A3001 RMK A01 T00970041  RH  068%=      5-min Rain = 0
KCR2 081507Z 04002KT 10/04 A3001 RMK A01 T00970041  RH  068%=      5-min Rain = 0
KCR2 081508Z 04002KT 10/04 A3001 RMK A01 T00980040  RH  067%=      5-min Rain = 0
KCR2 081509Z 02002KT 10/04 A3001 RMK A01 T00980041  RH  067%=      5-min Rain = 0
KCR2 081510Z 00001KT 10/04 A3002 RMK A01 T01000042  RH  067%=      5-min Rain = 0
KCR2 081511Z 03001KT 10/04 A3002 RMK A01 T01010043  RH  067%=      5-min Rain = 0
KCR2 081512Z 05001KT 10/04 A3001 RMK A01 T01030043  RH  067%=      5-min Rain = 0
KCR2 081513Z 02001KT 10/04 A3002 RMK A01 T01040043  RH  066%=      5-min Rain = 0
KCR2 081514Z 01002KT 11/04 A3002 RMK A01 T01060043  RH  065%=      5-min Rain = 0
KCR2 081515Z 02002KT 11/04 A3001 RMK A01 T01060043  RH  065%=      5-min Rain = 0
KCR2 081516Z 03002KT 11/04 A3001 RMK A01 T01070044  RH  065%=      5-min Rain = 0
KCR2 081517Z 03002KT 11/04 A3001 RMK A01 T01070043  RH  064%=      5-min Rain = 0
KCR2 081518Z 02002KT 11/04 A3001 RMK A01 T01080043  RH  064%=      5-min Rain = 0
KCR2 081519Z 02001KT 11/04 A3001 RMK A01 T01080043  RH  064%=      5-min Rain = 0
KCR2 081520Z 02002KT 11/04 A3001 RMK A01 T01090043  RH  064%=      5-min Rain = 0
KCR2 081521Z 02001KT 11/04 A3001 RMK A01 T01100043  RH  063%=      5-min Rain = 0
KCR2 081522Z 34000KT 11/05 A3001 RMK A01 T01110045  RH  064%=      5-min Rain = 0
KCR2 081523Z 05000KT 11/05 A3001 RMK A01 T01130045  RH  063%=      5-min Rain = 0
KCR2 081524Z 04000KT 11/04 A3001 RMK A01 T01140044  RH  062%=      5-min Rain = 0
KCR2 081525Z 00000KT 12/05 A3001 RMK A01 T01160046  RH  062%=      5-min Rain = 0
KCR2 081526Z 00000KT 12/05 A3001 RMK A01 T01190047  RH  061%=      5-min Rain = 0
KCR2 081527Z 29000KT 12/05 A3001 RMK A01 T01200046  RH  060%=      5-min Rain = 0
KCR2 081528Z 34000KT 12/05 A3001 RMK A01 T01220046  RH  060%=      5-min Rain = 0
KCR2 081529Z 02000KT 12/05 A3001 RMK A01 T01240047  RH  059%=      5-min Rain = 0
KCR2 081530Z 00000KT 13/05 A3001 RMK A01 T01260047  RH  059%=      5-min Rain = 0
KCR2 081531Z 32000KT 13/05 A3001 RMK A01 T01270046  RH  058%=      5-min Rain = 0
KCR2 081532Z 29000KT 13/05 A3001 RMK A01 T01280046  RH  058%=      5-min Rain = 0
KCR2 081533Z 00000KT 13/05 A3001 RMK A01 T01290047  RH  057%=      5-min Rain = 0
KCR2 081534Z 18000KT 13/05 A3001 RMK A01 T01310046  RH  056%=      5-min Rain = 0
KCR2 081535Z 17000KT 13/05 A3001 RMK A01 T01330047  RH  056%=      5-min Rain = 0
KCR2 081536Z 00000KT 13/05 A3001 RMK A01 T01340047  RH  056%=      5-min Rain = 0
KCR2 081537Z 00000KT 14/05 A3001 RMK A01 T01350048  RH  056%=      5-min Rain = 0
KCR2 081538Z 22000KT 14/05 A3001 RMK A01 T01350047  RH  055%=      5-min Rain = 0
KCR2 081539Z 17000KT 14/05 A3001 RMK A01 T01350046  RH  055%=      5-min Rain = 0
KCR2 081540Z 17001KT 14/05 A3001 RMK A01 T01350046  RH  055%=      5-min Rain = 0
KCR2 081541Z 19001KT 14/05 A3001 RMK A01 T01350047  RH  055%=      5-min Rain = 0
KCR2 081542Z 16001KT 14/05 A3001 RMK A01 T01350048  RH  055%=      5-min Rain = 0
KCR2 081543Z 20000KT 14/05 A3001 RMK A01 T01350048  RH  056%=      5-min Rain = 0
KCR2 081544Z 00000KT 14/05 A3001 RMK A01 T01350048  RH  056%=      5-min Rain = 0
KCR2 081545Z 19000KT 14/05 A3001 RMK A01 T01350049  RH  056%=      5-min Rain = 0
KCR2 081546Z 17001KT 14/05 A3001 RMK A01 T01350048  RH  056%=      5-min Rain = 0
KCR2 081547Z 20001KT 14/05 A3001 RMK A01 T01350048  RH  056%=      5-min Rain = 0
KCR2 081548Z 21002KT 14/05 A3001 RMK A01 T01360048  RH  055%=      5-min Rain = 0
KCR2 081549Z 22003KT 14/05 A3001 RMK A01 T01370048  RH  055%=      5-min Rain = 0
KCR2 081550Z 22006KT 14/05 A3001 RMK A01 T01400048  RH  054%=      5-min Rain = 0
KCR2 081551Z 20006KT 15/05 A3001 RMK A01 T01480047  RH  051%=      5-min Rain = 0
KCR2 081552Z 22005KT 15/05 A3001 RMK A01 T01540046  RH  049%=      5-min Rain = 0
KCR2 081553Z 22007KT 16/05 A3001 RMK A01 T01570045  RH  047%=      5-min Rain = 0
KCR2 081554Z 21006KT 16/05 A3001 RMK A01 T01590045  RH  047%=      5-min Rain = 0
KCR2 081555Z 21006KT 16/04 A3001 RMK A01 T01610044  RH  046%=      5-min Rain = 0
KCR2 081556Z 22006KT 16/04 A3001 RMK A01 T01620044  RH  045%=      5-min Rain = 0
KCR2 081557Z 23007KT 16/04 A3001 RMK A01 T01630043  RH  045%=      5-min Rain = 0
KCR2 081558Z 23006KT 16/04 A3002 RMK A01 T01640044  RH  045%=      5-min Rain = 0
KCR2 081559Z 22007KT 17/04 A3002 RMK A01 T01650044  RH  044%=      5-min Rain = 0
KCR2 081600Z 22006KT 17/04 A3002 RMK A01 T01660043  RH  044%=      5-min Rain = 0
KCR2 081601Z 22007KT 17/04 A3002 RMK A01 T01670044  RH  044%=      5-min Rain = 0
KCR2 081602Z 22006KT 17/04 A3002 RMK A01 T01680043  RH  044%=      5-min Rain = 0
KCR2 081603Z 21006KT 17/04 A3002 RMK A01 T01680043  RH  044%=      5-min Rain = 0
KCR2 081604Z 22006KT 17/04 A3001 RMK A01 T01680043  RH  043%=      5-min Rain = 0
KCR2 081605Z 23005KT 17/04 A3001 RMK A01 T01690043  RH  043%=      5-min Rain = 0
KCR2 081606Z 22006KT 17/04 A3001 RMK A01 T01690042  RH  043%=      5-min Rain = 0
KCR2 081607Z 21006KT 17/04 A3001 RMK A01 T01690044  RH  043%=      5-min Rain = 0
KCR2 081608Z 21007KT 17/04 A3002 RMK A01 T01690043  RH  043%=      5-min Rain = 0
KCR2 081609Z 21007KT 17/04 A3002 RMK A01 T01680041  RH  043%=      5-min Rain = 0
KCR2 081610Z 21008KT 17/04 A3002 RMK A01 T01670041  RH  043%=      5-min Rain = 0
KCR2 081611Z 22006KT 17/04 A3002 RMK A01 T01670042  RH  043%=      5-min Rain = 0
KCR2 081612Z 21006KT 17/04 A3001 RMK A01 T01680043  RH  043%=      5-min Rain = 0
KCR2 081613Z 22006KT 17/04 A3001 RMK A01 T01680042  RH  043%=      5-min Rain = 0
KCR2 081614Z 23005KT 17/04 A3001 RMK A01 T01680042  RH  043%=      5-min Rain = 0
KCR2 081615Z 22006KT 17/04 A3001 RMK A01 T01680043  RH  043%=      5-min Rain = 0
KCR2 081616Z 22006KT 17/04 A3001 RMK A01 T01690042  RH  043%=      5-min Rain = 0
KCR2 081617Z 22006KT 17/04 A3001 RMK A01 T01690042  RH  043%=      5-min Rain = 0
KCR2 081618Z 22006KT 17/04 A3001 RMK A01 T01690042  RH  043%=      5-min Rain = 0
KCR2 081619Z 22006KT 17/04 A3001 RMK A01 T01690043  RH  043%=      5-min Rain = 0
KCR2 081620Z 22007KT 17/04 A3001 RMK A01 T01690042  RH  043%=      5-min Rain = 0
KCR2 081621Z 22006KT 17/04 A3001 RMK A01 T01690042  RH  043%=      5-min Rain = 0
KCR2 081622Z 21007KT 17/04 A3001 RMK A01 T01680042  RH  043%=      5-min Rain = 0
KCR2 081623Z 21007KT 17/04 A3001 RMK A01 T01680042  RH  043%=      5-min Rain = 0
KCR2 081624Z 22007KT 17/04 A3001 RMK A01 T01680042  RH  043%=      5-min Rain = 0
KCR2 081625Z 21006KT 17/04 A3001 RMK A01 T01690043  RH  043%=      5-min Rain = 0
KCR2 081626Z 22006KT 17/04 A3001 RMK A01 T01700043  RH  043%=      5-min Rain = 0
KCR2 081627Z 22006KT 17/04 A3001 RMK A01 T01710044  RH  043%=      5-min Rain = 0
KCR2 081628Z 21005KT 17/04 A3001 RMK A01 T01710043  RH  043%=      5-min Rain = 0
KCR2 081629Z 22005KT 17/04 A3001 RMK A01 T01710043  RH  043%=      5-min Rain = 0
KCR2 081630Z 23005KT 17/04 A3001 RMK A01 T01710044  RH  043%=      5-min Rain = 0
KCR2 081631Z 23006KT 17/05 A3001 RMK A01 T01720046  RH  043%=      5-min Rain = 0
KCR2 081632Z 22006KT 17/04 A3001 RMK A01 T01730043  RH  042%=      5-min Rain = 0
KCR2 081633Z 21007KT 17/04 A3001 RMK A01 T01720044  RH  043%=      5-min Rain = 0
KCR2 081634Z 22006KT 17/04 A3001 RMK A01 T01730044  RH  042%=      5-min Rain = 0
KCR2 081635Z 23005KT 17/04 A3001 RMK A01 T01730043  RH  042%=      5-min Rain = 0
KCR2 081636Z 24005KT 17/04 A3001 RMK A01 T01730043  RH  042%=      5-min Rain = 0
KCR2 081637Z 25004KT 17/04 A3001 RMK A01 T01730044  RH  043%=      5-min Rain = 0
KCR2 081638Z 25006KT 17/05 A3001 RMK A01 T01740046  RH  043%=      5-min Rain = 0
KCR2 081639Z 23006KT 18/05 A3001 RMK A01 T01750045  RH  042%=      5-min Rain = 0
KCR2 081640Z 22005KT 18/05 A3001 RMK A01 T01750045  RH  042%=      5-min Rain = 0
KCR2 081641Z 22005KT 18/05 A3001 RMK A01 T01760047  RH  043%=      5-min Rain = 0
KCR2 081642Z 23007KT 18/05 A3001 RMK A01 T01760045  RH  042%=      5-min Rain = 0
KCR2 081643Z 22006KT 18/05 A3001 RMK A01 T01760045  RH  042%=      5-min Rain = 0
KCR2 081644Z 22007KT 18/05 A3001 RMK A01 T01770045  RH  041%=      5-min Rain = 0
KCR2 081645Z 23007KT 18/05 A3001 RMK A01 T01770045  RH  041%=      5-min Rain = 0
KCR2 081646Z 23006KT 18/04 A3001 RMK A01 T01780044  RH  041%=      5-min Rain = 0
KCR2 081647Z 23006KT 18/04 A3001 RMK A01 T01780044  RH  041%=      5-min Rain = 0
KCR2 081648Z 22006KT 18/04 A3001 RMK A01 T01780043  RH  041%=      5-min Rain = 0
KCR2 081649Z 23005KT 18/05 A30 RMK A01 T01780045  RH  041%=      5-min Rain = 0
KCR2 081650Z 24005KT 18/04 A30 RMK A01 T01790043  RH  041%=      5-min Rain = 0
KCR2 081651Z 24006KT 18/04 A30 RMK A01 T01800044  RH  041%=      5-min Rain = 0
KCR2 081652Z 24006KT 18/04 A30 RMK A01 T01800043  RH  040%=      5-min Rain = 0
KCR2 081653Z 23006KT 18/05 A30 RMK A01 T01810045  RH  041%=      5-min Rain = 0
KCR2 081654Z 23007KT 18/05 A30 RMK A01 T01820047  RH  041%=      5-min Rain = 0
KCR2 081655Z 22008KT 18/05 A30 RMK A01 T01840045  RH  040%=      5-min Rain = 0
KCR2 081656Z 22007KT 19/04 A30 RMK A01 T01850044  RH  039%=      5-min Rain = 0
KCR2 081657Z 22007KT 18/04 A30 RMK A01 T01840044  RH  039%=      5-min Rain = 0
KCR2 081658Z 22007KT 18/05 A30 RMK A01 T01840045  RH  040%=      5-min Rain = 0
KCR2 081659Z 22008KT 18/05 A30 RMK A01 T01840045  RH  040%=      5-min Rain = 0
KCR2 081700Z 23007KT 18/04 A30 RMK A01 T01840043  RH  039%=      5-min Rain = 0
KCR2 081701Z 23008KT 18/04 A30 RMK A01 T01830043  RH  040%=      5-min Rain = 0
KCR2 081702Z 24006KT 18/04 A30 RMK A01 T01840043  RH  039%=      5-min Rain = 0
KCR2 081703Z 22007KT 18/04 A30 RMK A01 T01830043  RH  040%=      5-min Rain = 0
KCR2 081704Z 23008KT 19/05 A30 RMK A01 T01850045  RH  039%=      5-min Rain = 0
KCR2 081705Z 25008KT 19/04 A30 RMK A01 T01860043  RH  039%=      5-min Rain = 0
KCR2 081706Z 24008KT 19/04 A30 RMK A01 T01860044  RH  039%=      5-min Rain = 0
KCR2 081707Z 23008KT 19/05 A30 RMK A01 T01870045  RH  039%=      5-min Rain = 0
KCR2 081708Z 24008KT 19/04 A30 RMK A01 T01880044  RH  039%=      5-min Rain = 0
KCR2 081709Z 23009KT 19/05 A30 RMK A01 T01890045  RH  039%=      5-min Rain = 0
KCR2 081710Z 24007KT 19/04 A30 RMK A01 T01890044  RH  038%=      5-min Rain = 0
KCR2 081711Z 23007KT 19/05 A30 RMK A01 T01900045  RH  038%=      5-min Rain = 0
KCR2 081712Z 23007KT 19/05 A30 RMK A01 T01920047  RH  038%=      5-min Rain = 0
KCR2 081713Z 24008KT 19/05 A30 RMK A01 T01930046  RH  038%=      5-min Rain = 0
KCR2 081714Z 24008KT 19/05 A30 RMK A01 T01940045  RH  038%=      5-min Rain = 0
KCR2 081715Z 24006KT 20/05 A30 RMK A01 T01950047  RH  038%=      5-min Rain = 0
KCR2 081716Z 25007KT 20/05 A30 RMK A01 T01960047  RH  037%=      5-min Rain = 0
KCR2 081717Z 24008KT 20/05 A30 RMK A01 T01970046  RH  037%=      5-min Rain = 0
KCR2 081718Z 23010KT 20/05 A2999 RMK A01 T01960045  RH  037%=      5-min Rain = 0
KCR2 081719Z 23007KT 20/05 A2999 RMK A01 T01960045  RH  037%=      5-min Rain = 0
KCR2 081720Z 25008KT 20/05 A2999 RMK A01 T01960046  RH  037%=      5-min Rain = 0
KCR2 081721Z 25009KT 20/05 A2999 RMK A01 T01950045  RH  037%=      5-min Rain = 0
KCR2 081722Z 24009KT 20/05 A2999 RMK A01 T01950045  RH  037%=      5-min Rain = 0
KCR2 081723Z 23008KT 20/05 A2999 RMK A01 T01970046  RH  037%=      5-min Rain = 0
KCR2 081724Z 22008KT 20/05 A2999 RMK A01 T01980047  RH  037%=      5-min Rain = 0
KCR2 081725Z 22008KT 20/05 A2999 RMK A01 T01990048  RH  037%=      5-min Rain = 0
KCR2 081726Z 22008KT 20/05 A2999 RMK A01 T02000046  RH  036%=      5-min Rain = 0
KCR2 081727Z 24009KT 20/05 A2999 RMK A01 T02020049  RH  037%=      5-min Rain = 0
KCR2 081728Z 25009KT 20/05 A2999 RMK A01 T02030046  RH  036%=      5-min Rain = 0
KCR2 081729Z 25009KT 20/05 A2999 RMK A01 T02040047  RH  036%=      5-min Rain = 0
KCR2 081730Z 24009KT 20/05 A2999 RMK A01 T02040047  RH  036%=      5-min Rain = 0
KCR2 081731Z 24009KT 21/05 A2999 RMK A01 T02050049  RH  036%=      5-min Rain = 0
KCR2 081732Z 23010KT 21/05 A2999 RMK A01 T02060047  RH  035%=      5-min Rain = 0
KCR2 081733Z 23008KT 21/05 A2999 RMK A01 T02070048  RH  035%=      5-min Rain = 0
KCR2 081734Z 24009KT 21/05 A2999 RMK A01 T02090050  RH  035%=      5-min Rain = 0
KCR2 081735Z 22010KT 21/05 A2999 RMK A01 T02100049  RH  035%=      5-min Rain = 0
KCR2 081736Z 22011KT 21/05 A2999 RMK A01 T02100048  RH  035%=      5-min Rain = 0
KCR2 081737Z 23010KT 21/05 A2999 RMK A01 T02100049  RH  035%=      5-min Rain = 0
KCR2 081738Z 24010KT 21/05 A2999 RMK A01 T02110048  RH  035%=      5-min Rain = 0
KCR2 081739Z 25009KT 21/05 A2999 RMK A01 T02100048  RH  035%=      5-min Rain = 0
KCR2 081740Z 23009KT 21/05 A2999 RMK A01 T02090049  RH  035%=      5-min Rain = 0
KCR2 081741Z 23010KT 21/05 A2999 RMK A01 T02090049  RH  035%=      5-min Rain = 0
KCR2 081742Z 22008KT 21/05 A2999 RMK A01 T02090048  RH  035%=      5-min Rain = 0
KCR2 081743Z 23008KT 21/05 A2999 RMK A01 T02090050  RH  035%=      5-min Rain = 0
KCR2 081744Z 24009KT 21/05 A2999 RMK A01 T02100049  RH  035%=      5-min Rain = 0
KCR2 081745Z 23011KT 21/05 A2999 RMK A01 T02110049  RH  035%=      5-min Rain = 0
KCR2 081746Z 23009KT 21/05 A2999 RMK A01 T02100048  RH  035%=      5-min Rain = 0
KCR2 081747Z 23009KT 21/05 A2998 RMK A01 T02110050  RH  035%=      5-min Rain = 0
KCR2 081748Z 24009KT 21/05 A2999 RMK A01 T02110049  RH  035%=      5-min Rain = 0
KCR2 081749Z 23009KT 21/05 A2998 RMK A01 T02110049  RH  035%=      5-min Rain = 0
KCR2 081750Z 23010KT 21/05 A2998 RMK A01 T02110048  RH  034%=      5-min Rain = 0
KCR2 081751Z 24009KT 21/05 A2998 RMK A01 T02120049  RH  034%=      5-min Rain = 0
KCR2 081752Z 24009KT 21/05 A2998 RMK A01 T02120048  RH  034%=      5-min Rain = 0
KCR2 081753Z 23010KT 21/05 A2998 RMK A01 T02130049  RH  034%=      5-min Rain = 0
KCR2 081754Z 22009KT 21/05 A2998 RMK A01 T02140049  RH  034%=      5-min Rain = 0
KCR2 081755Z 22008KT 21/05 A2998 RMK A01 T02140050  RH  034%=      5-min Rain = 0
KCR2 081756Z 22007KT 21/05 A2998 RMK A01 T02140050  RH  034%=      5-min Rain = 0
KCR2 081757Z 24008KT 22/05 A2998 RMK A01 T02160052  RH  034%=      5-min Rain = 0
KCR2 081758Z 22009KT 22/05 A2998 RMK A01 T02160050  RH  034%=      5-min Rain = 0
KCR2 081759Z 22011KT 22/05 A2998 RMK A01 T02170050  RH  034%=      5-min Rain = 0
KCR2 081800Z 22010KT 22/05 A2998 RMK A01 T02170049  RH  033%=      5-min Rain = 0
KCR2 081801Z 23009KT 22/05 A2998 RMK A01 T02170049  RH  034%=      5-min Rain = 0
KCR2 081802Z 23008KT 22/05 A2998 RMK A01 T02170049  RH  033%=      5-min Rain = 0
KCR2 081803Z 24009KT 22/05 A2998 RMK A01 T02170049  RH  033%=      5-min Rain = 0
KCR2 081804Z 24009KT 22/05 A2998 RMK A01 T02170048  RH  033%=      5-min Rain = 0
KCR2 081805Z 23007KT 22/05 A2998 RMK A01 T02190051  RH  033%=      5-min Rain = 0
KCR2 081806Z 23008KT 22/05 A2998 RMK A01 T02220050  RH  033%=      5-min Rain = 0
KCR2 081807Z 23007KT 22/05 A2997 RMK A01 T02220050  RH  033%=      5-min Rain = 0
KCR2 081808Z 22008KT 22/05 A2997 RMK A01 T02220051  RH  033%=      5-min Rain = 0
KCR2 081809Z 23009KT 22/05 A2997 RMK A01 T02230049  RH  032%=      5-min Rain = 0
KCR2 081810Z 23010KT 22/05 A2997 RMK A01 T02220049  RH  032%=      5-min Rain = 0
KCR2 081811Z 23010KT 22/05 A2997 RMK A01 T02210049  RH  033%=      5-min Rain = 0
KCR2 081812Z 24008KT 22/05 A2997 RMK A01 T02190048  RH  033%=      5-min Rain = 0
KCR2 081813Z 24008KT 22/05 A2997 RMK A01 T02180049  RH  033%=      5-min Rain = 0
KCR2 081814Z 23008KT 22/05 A2997 RMK A01 T02180049  RH  033%=      5-min Rain = 0
KCR2 081815Z 22009KT 22/05 A2997 RMK A01 T02190050  RH  033%=      5-min Rain = 0
KCR2 081816Z 23009KT 22/05 A2997 RMK A01 T02190049  RH  033%=      5-min Rain = 0
KCR2 081817Z 23009KT 22/05 A2997 RMK A01 T02200051  RH  033%=      5-min Rain = 0
KCR2 081818Z 24008KT 22/05 A2997 RMK A01 T02210050  RH  033%=      5-min Rain = 0
KCR2 081819Z 24009KT 22/05 A2997 RMK A01 T02200050  RH  033%=      5-min Rain = 0
KCR2 081820Z 23008KT 22/05 A2997 RMK A01 T02210050  RH  033%=      5-min Rain = 0
KCR2 081821Z 23008KT 22/05 A2996 RMK A01 T02220052  RH  033%=      5-min Rain = 0
KCR2 081822Z 24007KT 22/05 A2996 RMK A01 T02240053  RH  033%=      5-min Rain = 0
KCR2 081823Z 24011KT 23/05 A2996 RMK A01 T02260051  RH  032%=      5-min Rain = 0
KCR2 081824Z 26012KT 23/05 A2996 RMK A01 T02270049  RH  031%=      5-min Rain = 0
KCR2 081825Z 26010KT 23/05 A2996 RMK A01 T02280049  RH  031%=      5-min Rain = 0
KCR2 081826Z 26009KT 23/05 A2996 RMK A01 T02280049  RH  031%=      5-min Rain = 0
KCR2 081827Z 24010KT 23/05 A2996 RMK A01 T02300051  RH  031%=      5-min Rain = 0
KCR2 081828Z 25009KT 23/05 A2996 RMK A01 T02300050  RH  031%=      5-min Rain = 0
KCR2 081829Z 26010KT 23/05 A2996 RMK A01 T02300050  RH  031%=      5-min Rain = 0
KCR2 081830Z 24010KT 23/05 A2996 RMK A01 T02300049  RH  031%=      5-min Rain = 0
KCR2 081831Z 25010KT 23/05 A2996 RMK A01 T02290049  RH  031%=      5-min Rain = 0
KCR2 081832Z 25010KT 23/05 A2996 RMK A01 T02290049  RH  031%=      5-min Rain = 0
KCR2 081833Z 26009KT 23/05 A2996 RMK A01 T02290050  RH  031%=      5-min Rain = 0
KCR2 081834Z 26009KT 23/05 A2996 RMK A01 T02300050  RH  031%=      5-min Rain = 0
KCR2 081835Z 25010KT 23/05 A2996 RMK A01 T02300050  RH  031%=      5-min Rain = 0
KCR2 081836Z 25010KT 23/05 A2996 RMK A01 T02290050  RH  031%=      5-min Rain = 0
KCR2 081837Z 25010KT 23/05 A2995 RMK A01 T02310050  RH  031%=      5-min Rain = 0
KCR2 081838Z 26014KT 23/05 A2995 RMK A01 T02320050  RH  031%=      5-min Rain = 0
KCR2 081839Z 27011KT 23/05 A2995 RMK A01 T02320049  RH  030%=      5-min Rain = 0
KCR2 081840Z 27012KT 23/05 A2995 RMK A01 T02320049  RH  031%=      5-min Rain = 0
KCR2 081841Z 26013KT 23/05 A2995 RMK A01 T02310049  RH  031%=      5-min Rain = 0
KCR2 081842Z 26011KT 23/05 A2995 RMK A01 T02320049  RH  031%=      5-min Rain = 0
KCR2 081843Z 26009KT 23/05 A2995 RMK A01 T02310049  RH  031%=      5-min Rain = 0
KCR2 081844Z 27010KT 23/05 A2995 RMK A01 T02310050  RH  031%=      5-min Rain = 0
KCR2 081845Z 27011KT 23/05 A2995 RMK A01 T02320049  RH  031%=      5-min Rain = 0
KCR2 081846Z 27013KT 23/05 A2995 RMK A01 T02320049  RH  030%=      5-min Rain = 0
KCR2 081847Z 26011KT 23/05 A2994 RMK A01 T02320049  RH  030%=      5-min Rain = 0
KCR2 081848Z 26008KT 23/05 A2994 RMK A01 T02320049  RH  030%=      5-min Rain = 0
KCR2 081849Z 27008KT 23/05 A2994 RMK A01 T02330049  RH  030%=      5-min Rain = 0
KCR2 081850Z 26007KT 23/05 A2994 RMK A01 T02340050  RH  030%=      5-min Rain = 0
KCR2 081851Z 26008KT 24/05 A2994 RMK A01 T02360051  RH  030%=      5-min Rain = 0
KCR2 081852Z 25009KT 24/05 A2994 RMK A01 T02380052  RH  030%=      5-min Rain = 0
KCR2 081853Z 26011KT 24/05 A2994 RMK A01 T02410052  RH  029%=      5-min Rain = 0
KCR2 081854Z 26011KT 24/05 A2994 RMK A01 T02390049  RH  029%=      5-min Rain = 0
KCR2 081855Z 25012KT 24/05 A2994 RMK A01 T02390050  RH  030%=      5-min Rain = 0
KCR2 081856Z 25013KT 24/05 A2993 RMK A01 T02380050  RH  030%=      5-min Rain = 0
KCR2 081857Z 27010KT 24/05 A2993 RMK A01 T02400051  RH  029%=      5-min Rain = 0
KCR2 081858Z 25012KT 24/05 A2993 RMK A01 T02410050  RH  029%=      5-min Rain = 0
KCR2 081859Z 25014KT 24/05 A2993 RMK A01 T02420049  RH  029%=      5-min Rain = 0
KCR2 081900Z 25014KT 24/05 A2993 RMK A01 T02420048  RH  029%=      5-min Rain = 0
KCR2 081901Z 25014KT 24/05 A2993 RMK A01 T02420048  RH  029%=      5-min Rain = 0
KCR2 081902Z 26013KT 24/05 A2993 RMK A01 T02420049  RH  029%=      5-min Rain = 0
KCR2 081903Z 26014KT 24/05 A2993 RMK A01 T02430048  RH  028%=      5-min Rain = 0
KCR2 081904Z 27012KT 24/05 A2993 RMK A01 T02430048  RH  028%=      5-min Rain = 0
KCR2 081905Z 27011KT 24/05 A2993 RMK A01 T02440048  RH  028%=      5-min Rain = 0
KCR2 081906Z 26011KT 25/05 A2993 RMK A01 T02450049  RH  028%=      5-min Rain = 0
KCR2 081907Z 25014KT 25/05 A2993 RMK A01 T02460049  RH  028%=      5-min Rain = 0
KCR2 081908Z 27013KT 25/05 A2993 RMK A01 T02460049  RH  028%=      5-min Rain = 0
KCR2 081909Z 27012KT 25/05 A2993 RMK A01 T02470048  RH  028%=      5-min Rain = 0
KCR2 081910Z 26012KT 25/05 A2992 RMK A01 T02470046  RH  027%=      5-min Rain = 0
KCR2 081911Z 27010KT 25/05 A2992 RMK A01 T02500049  RH  027%=      5-min Rain = 0
KCR2 081912Z 27012KT 25/05 A2992 RMK A01 T02510048  RH  027%=      5-min Rain = 0
KCR2 081913Z 26012KT 25/05 A2992 RMK A01 T02530048  RH  027%=      5-min Rain = 0
KCR2 081914Z 25013KT 26/05 A2992 RMK A01 T02560049  RH  026%=      5-min Rain = 0
KCR2 081915Z 26017KT 25/05 A2992 RMK A01 T02540046  RH  026%=      5-min Rain = 0
KCR2 081916Z 26018KT 25/05 A2992 RMK A01 T02540045  RH  026%=      5-min Rain = 0
KCR2 081917Z 26019KT 25/04 A2992 RMK A01 T02540044  RH  026%=      5-min Rain = 0
KCR2 081918Z 25017G24KT 26/05 A2991 RMK A01 T02550045  RH  026%=      5-min Rain = 0
KCR2 081919Z 25018G24KT 26/05 A2991 RMK A01 T02580045  RH  025%=      5-min Rain = 0
KCR2 081920Z 25018KT 26/04 A2991 RMK A01 T02570042  RH  025%=      5-min Rain = 0
KCR2 081921Z 26022KT 26/04 A2991 RMK A01 T02570042  RH  025%=      5-min Rain = 0
KCR2 081922Z 26022KT 26/04 A2991 RMK A01 T02580039  RH  024%=      5-min Rain = 0
KCR2 081923Z 26015KT 26/04 A2991 RMK A01 T02560039  RH  025%=      5-min Rain = 0
KCR2 081924Z 26018KT 26/04 A2991 RMK A01 T02570041  RH  025%=      5-min Rain = 0
KCR2 081925Z 26018KT 26/04 A2991 RMK A01 T02580043  RH  025%=      5-min Rain = 0
KCR2 081926Z 26021KT 26/04 A2991 RMK A01 T02600044  RH  025%=      5-min Rain = 0
KCR2 081927Z 26020KT 26/04 A2991 RMK A01 T02580041  RH  025%=      5-min Rain = 0
KCR2 081928Z 26015G20KT 26/04 A2991 RMK A01 T02560042  RH  025%=      5-min Rain = 0
KCR2 081929Z 26018KT 26/04 A2991 RMK A01 T02550042  RH  025%=      5-min Rain = 0
KCR2 081930Z 27015KT 25/04 A2991 RMK A01 T02540041  RH  025%=      5-min Rain = 0
KCR2 081931Z 26019KT 25/04 A2991 RMK A01 T02540042  RH  026%=      5-min Rain = 0
KCR2 081932Z 27014KT 25/04 A2991 RMK A01 T02540044  RH  026%=      5-min Rain = 0
KCR2 081933Z 27016KT 25/04 A2991 RMK A01 T02520043  RH  026%=      5-min Rain = 0
KCR2 081934Z 26017G22KT 25/04 A2991 RMK A01 T02520044  RH  026%=      5-min Rain = 0
KCR2 081935Z 27017KT 25/05 A2991 RMK A01 T02530045  RH  026%=      5-min Rain = 0
KCR2 081936Z 27016KT 25/05 A2991 RMK A01 T02520045  RH  026%=      5-min Rain = 0
KCR2 081937Z 27016KT 25/05 A2991 RMK A01 T02520047  RH  027%=      5-min Rain = 0
KCR2 081938Z 26015KT 25/05 A299 RMK A01 T02540047  RH  026%=      5-min Rain = 0
KCR2 081939Z 27017G22KT 26/05 A299 RMK A01 T02560047  RH  026%=      5-min Rain = 0
KCR2 081940Z 26017KT 26/05 A299 RMK A01 T02570047  RH  026%=      5-min Rain = 0
KCR2 081941Z 26018KT 26/05 A299 RMK A01 T02570047  RH  026%=      5-min Rain = 0
KCR2 081942Z 26019KT 26/05 A299 RMK A01 T02570047  RH  026%=      5-min Rain = 0
KCR2 081943Z 26019KT 26/05 A2991 RMK A01 T02560047  RH  026%=      5-min Rain = 0
KCR2 081944Z 26018KT 25/05 A2991 RMK A01 T02540047  RH  026%=      5-min Rain = 0
KCR2 081945Z 25018KT 25/05 A299 RMK A01 T02540047  RH  026%=      5-min Rain = 0
KCR2 081946Z 26020KT 25/05 A2991 RMK A01 T02540047  RH  026%=      5-min Rain = 0
KCR2 081947Z 27014KT 25/05 A2991 RMK A01 T02520047  RH  027%=      5-min Rain = 0
KCR2 081948Z 27016KT 25/05 A299 RMK A01 T02520047  RH  027%=      5-min Rain = 0
KCR2 081949Z 28015KT 25/05 A299 RMK A01 T02520048  RH  027%=      5-min Rain = 0
KCR2 081950Z 28015KT 25/05 A299 RMK A01 T02520048  RH  027%=      5-min Rain = 0
KCR2 081951Z 27013KT 25/05 A299 RMK A01 T02520048  RH  027%=      5-min Rain = 0
KCR2 081952Z 26015KT 25/05 A299 RMK A01 T02520048  RH  027%=      5-min Rain = 0
KCR2 081953Z 27015KT 25/05 A299 RMK A01 T02520048  RH  027%=      5-min Rain = 0
KCR2 081954Z 26014KT 25/05 A299 RMK A01 T02510048  RH  027%=      5-min Rain = 0
KCR2 081955Z 27013KT 25/05 A299 RMK A01 T02520048  RH  027%=      5-min Rain = 0
KCR2 081956Z 26013G18KT 25/05 A299 RMK A01 T02510048  RH  027%=      5-min Rain = 0
KCR2 081957Z 26014G19KT 25/05 A299 RMK A01 T02510048  RH  027%=      5-min Rain = 0
KCR2 081958Z 27015KT 25/05 A299 RMK A01 T02520048  RH  027%=      5-min Rain = 0
KCR2 081959Z 27017KT 25/05 A299 RMK A01 T02520048  RH  027%=      5-min Rain = 0
KCR2 082000Z 27014KT 25/05 A299 RMK A01 T02520048  RH  027%=      5-min Rain = 0
KCR2 082001Z 26015G20KT 25/05 A299 RMK A01 T02530049  RH  027%=      5-min Rain = 0
KCR2 082002Z 27014KT 25/05 A299 RMK A01 T02540049  RH  027%=      5-min Rain = 0
KCR2 082003Z 26020KT 26/05 A299 RMK A01 T02550049  RH  027%=      5-min Rain = 0
KCR2 082004Z 26017KT 26/05 A2989 RMK A01 T02550049  RH  026%=      5-min Rain = 0
KCR2 082005Z 26016KT 26/05 A2989 RMK A01 T02550048  RH  026%=      5-min Rain = 0
KCR2 082006Z 25016KT 26/05 A2989 RMK A01 T02550049  RH  026%=      5-min Rain = 0
KCR2 082007Z 26016KT 26/05 A2989 RMK A01 T02560049  RH  026%=      5-min Rain = 0
KCR2 082008Z 27015KT 26/05 A2989 RMK A01 T02570049  RH  026%=      5-min Rain = 0
KCR2 082009Z 27014KT 26/05 A2989 RMK A01 T02570049  RH  026%=      5-min Rain = 0
KCR2 082010Z 27014KT 26/05 A299 RMK A01 T02570049  RH  026%=      5-min Rain = 0
KCR2 082011Z 27013KT 26/05 A299 RMK A01 T02580050  RH  026%=      5-min Rain = 0
KCR2 082012Z 28016KT 26/05 A299 RMK A01 T02590050  RH  026%=      5-min Rain = 0
KCR2 082013Z 27016KT 26/05 A299 RMK A01 T02590049  RH  026%=      5-min Rain = 0
KCR2 082014Z 27015KT 26/05 A299 RMK A01 T02590049  RH  026%=      5-min Rain = 0
KCR2 082015Z 28018KT 26/05 A299 RMK A01 T02590048  RH  026%=      5-min Rain = 0
KCR2 082016Z 27012KT 26/05 A299 RMK A01 T02580047  RH  026%=      5-min Rain = 0
KCR2 082017Z 28012KT 26/05 A299 RMK A01 T02570047  RH  026%=      5-min Rain = 0
KCR2 082018Z 27010KT 26/05 A299 RMK A01 T02560048  RH  026%=      5-min Rain = 0
KCR2 082019Z 28012KT 26/05 A299 RMK A01 T02570048  RH  026%=      5-min Rain = 0
KCR2 082020Z 28015KT 26/05 A299 RMK A01 T02590049  RH  026%=      5-min Rain = 0
KCR2 082021Z 28013KT 26/05 A299 RMK A01 T02580047  RH  026%=      5-min Rain = 0
KCR2 082022Z 28012KT 26/05 A2989 RMK A01 T02580048  RH  026%=      5-min Rain = 0
KCR2 082023Z 27011KT 26/05 A299 RMK A01 T02580047  RH  026%=      5-min Rain = 0
KCR2 082024Z 26010KT 26/05 A2989 RMK A01 T02590048  RH  026%=      5-min Rain = 0
KCR2 082025Z 27013G20KT 26/05 A299 RMK A01 T02610049  RH  026%=      5-min Rain = 0
KCR2 082026Z 27017KT 26/05 A299 RMK A01 T02620048  RH  025%=      5-min Rain = 0
KCR2 082027Z 27015KT 26/05 A299 RMK A01 T02630048  RH  025%=      5-min Rain = 0
KCR2 082028Z 27013KT 26/05 A299 RMK A01 T02610047  RH  025%=      5-min Rain = 0
KCR2 082029Z 27014KT 26/05 A299 RMK A01 T02600047  RH  025%=      5-min Rain = 0
KCR2 082030Z 28014KT 26/05 A2989 RMK A01 T02600046  RH  025%=      5-min Rain = 0
KCR2 082031Z 27013KT 26/05 A2989 RMK A01 T02580047  RH  026%=      5-min Rain = 0
KCR2 082032Z 26012KT 26/05 A2989 RMK A01 T02580047  RH  026%=      5-min Rain = 0
KCR2 082033Z 25016G21KT 26/05 A2989 RMK A01 T02590049  RH  026%=      5-min Rain = 0
KCR2 082034Z 26014G19KT 26/05 A2989 RMK A01 T02600049  RH  026%=      5-min Rain = 0
KCR2 082035Z 26014KT 26/05 A2989 RMK A01 T02610049  RH  026%=      5-min Rain = 0
KCR2 082036Z 26013KT 26/05 A2989 RMK A01 T02610048  RH  025%=      5-min Rain = 0
KCR2 082037Z 27013KT 26/05 A2989 RMK A01 T02610048  RH  025%=      5-min Rain = 0
KCR2 082038Z 26013KT 26/05 A2989 RMK A01 T02600048  RH  026%=      5-min Rain = 0
KCR2 082039Z 26016KT 26/05 A2989 RMK A01 T02590049  RH  026%=      5-min Rain = 0
KCR2 082040Z 27014G19KT 26/05 A2989 RMK A01 T02600049  RH  026%=      5-min Rain = 0
KCR2 082041Z 27013G18KT 26/05 A2989 RMK A01 T02610049  RH  026%=      5-min Rain = 0
KCR2 082042Z 26015KT 26/05 A2989 RMK A01 T02620049  RH  026%=      5-min Rain = 0
KCR2 082043Z 26015KT 26/05 A2989 RMK A01 T02620049  RH  025%=      5-min Rain = 0
KCR2 082044Z 27016KT 26/05 A2989 RMK A01 T02630049  RH  025%=      5-min Rain = 0
KCR2 082045Z 28017G22KT 26/05 A2989 RMK A01 T02620049  RH  025%=      5-min Rain = 0
KCR2 082046Z 27015KT 26/05 A2989 RMK A01 T02610049  RH  026%=      5-min Rain = 0
KCR2 082047Z 27017KT 26/05 A2989 RMK A01 T02610049  RH  026%=      5-min Rain = 0
KCR2 082048Z 27013KT 26/05 A2988 RMK A01 T02600048  RH  026%=      5-min Rain = 0
KCR2 082049Z 27013KT 26/05 A2988 RMK A01 T02600049  RH  026%=      5-min Rain = 0
KCR2 082050Z 28013KT 26/05 A2988 RMK A01 T02620049  RH  026%=      5-min Rain = 0
KCR2 082051Z 28016KT 26/05 A2988 RMK A01 T02620049  RH  025%=      5-min Rain = 0
KCR2 082052Z 26018KT 26/05 A2988 RMK A01 T02620050  RH  026%=      5-min Rain = 0
KCR2 082053Z 27017KT 26/05 A2988 RMK A01 T02610050  RH  026%=      5-min Rain = 0
KCR2 082054Z 27014KT 26/05 A2988 RMK A01 T02610051  RH  026%=      5-min Rain = 0
KCR2 082055Z 27015KT 26/05 A2988 RMK A01 T02610051  RH  026%=      5-min Rain = 0
KCR2 082056Z 27014KT 26/05 A2988 RMK A01 T02610052  RH  026%=      5-min Rain = 0
KCR2 082057Z 28016KT 26/05 A2988 RMK A01 T02620053  RH  026%=      5-min Rain = 0
KCR2 082058Z 28017KT 26/05 A2988 RMK A01 T02610053  RH  026%=      5-min Rain = 0
KCR2 082059Z 27017KT 26/05 A2988 RMK A01 T02610053  RH  026%=      5-min Rain = 0
KCR2 082100Z 28018KT 26/05 A2988 RMK A01 T02600053  RH  027%=      5-min Rain = 0
KCR2 082101Z 27018KT 26/05 A2988 RMK A01 T02600054  RH  027%=      5-min Rain = 0
KCR2 082102Z 27018KT 26/05 A2988 RMK A01 T02580053  RH  027%=      5-min Rain = 0
KCR2 082103Z 27017KT 26/05 A2988 RMK A01 T02580054  RH  027%=      5-min Rain = 0
KCR2 082104Z 27015KT 26/05 A2988 RMK A01 T02570054  RH  027%=      5-min Rain = 0
KCR2 082105Z 28016KT 26/06 A2988 RMK A01 T02570055  RH  027%=      5-min Rain = 0
KCR2 082106Z 28017KT 26/06 A2988 RMK A01 T02570055  RH  027%=      5-min Rain = 0
KCR2 082107Z 29017KT 26/06 A2988 RMK A01 T02560055  RH  027%=      5-min Rain = 0
KCR2 082108Z 28016G21KT 26/06 A2988 RMK A01 T02560055  RH  027%=      5-min Rain = 0
KCR2 082109Z 28015KT 26/06 A2988 RMK A01 T02560055  RH  028%=      5-min Rain = 0
KCR2 082110Z 27015KT 26/06 A2988 RMK A01 T02560056  RH  028%=      5-min Rain = 0
KCR2 082111Z 28018KT 26/06 A2988 RMK A01 T02560055  RH  028%=      5-min Rain = 0
KCR2 082112Z 27015KT 26/06 A2988 RMK A01 T02560055  RH  028%=      5-min Rain = 0
KCR2 082113Z 27015G20KT 26/06 A2988 RMK A01 T02560055  RH  028%=      5-min Rain = 0
KCR2 082114Z 26016KT 26/06 A2988 RMK A01 T02560055  RH  028%=      5-min Rain = 0
KCR2 082115Z 26013KT 26/06 A2988 RMK A01 T02560055  RH  028%=      5-min Rain = 0
KCR2 082116Z 27018KT 26/06 A2988 RMK A01 T02560055  RH  028%=      5-min Rain = 0
KCR2 082117Z 27016G21KT 26/06 A2988 RMK A01 T02560055  RH  027%=      5-min Rain = 0
KCR2 082118Z 27015KT 26/06 A2988 RMK A01 T02560055  RH  027%=      5-min Rain = 0
KCR2 082119Z 27013KT 26/06 A2988 RMK A01 T02560055  RH  027%=      5-min Rain = 0
KCR2 082120Z 27011KT 26/06 A2988 RMK A01 T02560055  RH  028%=      5-min Rain = 0
KCR2 082121Z 27010KT 26/06 A2988 RMK A01 T02570056  RH  027%=      5-min Rain = 0
KCR2 082122Z 27011KT 26/06 A2988 RMK A01 T02570056  RH  027%=      5-min Rain = 0
KCR2 082123Z 27013KT 26/06 A2988 RMK A01 T02580055  RH  027%=      5-min Rain = 0
KCR2 082124Z 26016KT 26/06 A2988 RMK A01 T02580056  RH  027%=      5-min Rain = 0
KCR2 082125Z 27016KT 26/06 A2988 RMK A01 T02580055  RH  027%=      5-min Rain = 0
KCR2 082126Z 26016G21KT 26/06 A2987 RMK A01 T02580055  RH  027%=      5-min Rain = 0
KCR2 082127Z 27015KT 26/06 A2987 RMK A01 T02590056  RH  027%=      5-min Rain = 0
KCR2 082128Z 26018KT 26/06 A2987 RMK A01 T02590056  RH  027%=      5-min Rain = 0
KCR2 082129Z 26018KT 26/06 A2987 RMK A01 T02580055  RH  027%=      5-min Rain = 0
KCR2 082130Z 26017KT 26/06 A2987 RMK A01 T02590056  RH  027%=      5-min Rain = 0
KCR2 082131Z 26018KT 26/06 A2987 RMK A01 T02590056  RH  027%=      5-min Rain = 0
KCR2 082132Z 26020KT 26/06 A2987 RMK A01 T02600056  RH  027%=      5-min Rain = 0
KCR2 082133Z 27015KT 26/06 A2987 RMK A01 T02600055  RH  027%=      5-min Rain = 0
KCR2 082134Z 27016KT 26/06 A2987 RMK A01 T02600056  RH  027%=      5-min Rain = 0
KCR2 082135Z 27017KT 26/06 A2987 RMK A01 T02600055  RH  027%=      5-min Rain = 0
KCR2 082136Z 27015G20KT 26/06 A2987 RMK A01 T02590056  RH  027%=      5-min Rain = 0
KCR2 082137Z 27017KT 26/06 A2987 RMK A01 T02590056  RH  027%=      5-min Rain = 0
KCR2 082138Z 27019KT 26/06 A2987 RMK A01 T02600056  RH  027%=      5-min Rain = 0
KCR2 082139Z 27019KT 26/06 A2987 RMK A01 T02600056  RH  027%=      5-min Rain = 0
KCR2 082140Z 28019KT 26/06 A2987 RMK A01 T02600056  RH  027%=      5-min Rain = 0
KCR2 082141Z 28019KT 26/06 A2988 RMK A01 T02600056  RH  027%=      5-min Rain = 0
KCR2 082142Z 27018KT 26/06 A2988 RMK A01 T02590056  RH  027%=      5-min Rain = 0
KCR2 082143Z 27018KT 26/06 A2988 RMK A01 T02590056  RH  027%=      5-min Rain = 0
KCR2 082144Z 28019G24KT 26/06 A2988 RMK A01 T02590056  RH  027%=      5-min Rain = 0
KCR2 082145Z 27018KT 26/06 A2988 RMK A01 T02590056  RH  027%=      5-min Rain = 0
KCR2 082146Z 27018KT 26/06 A2988 RMK A01 T02590056  RH  027%=      5-min Rain = 0
KCR2 082147Z 26014KT 26/06 A2988 RMK A01 T02580057  RH  027%=      5-min Rain = 0
KCR2 082148Z 27013KT 26/06 A2988 RMK A01 T02580057  RH  027%=      5-min Rain = 0
KCR2 082149Z 27013KT 26/06 A2988 RMK A01 T02590057  RH  027%=      5-min Rain = 0
KCR2 082150Z 26013G19KT 26/06 A2988 RMK A01 T02580056  RH  027%=      5-min Rain = 0
KCR2 082151Z 26014KT 26/06 A2988 RMK A01 T02590057  RH  027%=      5-min Rain = 0
KCR2 082152Z 26016KT 26/06 A2988 RMK A01 T02600057  RH  027%=      5-min Rain = 0
KCR2 082153Z 26016KT 26/06 A2988 RMK A01 T02590056  RH  027%=      5-min Rain = 0
KCR2 082154Z 27016KT 26/06 A2988 RMK A01 T02600057  RH  027%=      5-min Rain = 0
KCR2 082155Z 27015KT 26/06 A2988 RMK A01 T02590056  RH  027%=      5-min Rain = 0
KCR2 082156Z 27014KT 26/06 A2988 RMK A01 T02590057  RH  027%=      5-min Rain = 0
KCR2 082157Z 27015KT 26/06 A2988 RMK A01 T02590057  RH  027%=      5-min Rain = 0
KCR2 082158Z 27016KT 26/06 A2988 RMK A01 T02590057  RH  027%=      5-min Rain = 0
KCR2 082159Z 27013KT 26/06 A2988 RMK A01 T02590057  RH  027%=      5-min Rain = 0
KCR2 082200Z 27012KT 26/06 A2988 RMK A01 T02590057  RH  027%=      5-min Rain = 0
KCR2 082201Z 27011KT 26/06 A2988 RMK A01 T02590057  RH  027%=      5-min Rain = 0
KCR2 082202Z 27010KT 26/06 A2988 RMK A01 T02590057  RH  027%=      5-min Rain = 0
KCR2 082203Z 27011KT 26/06 A2988 RMK A01 T02590058  RH  028%=      5-min Rain = 0
KCR2 082204Z 27013KT 26/06 A2988 RMK A01 T02590057  RH  027%=      5-min Rain = 0
KCR2 082205Z 27012KT 26/06 A2988 RMK A01 T02590057  RH  027%=      5-min Rain = 0
KCR2 082206Z 27013KT 26/06 A2988 RMK A01 T02580057  RH  028%=      5-min Rain = 0
KCR2 082207Z 27014G19KT 26/06 A2988 RMK A01 T02580057  RH  028%=      5-min Rain = 0
KCR2 082208Z 26017KT 26/06 A2987 RMK A01 T02580057  RH  028%=      5-min Rain = 0
KCR2 082209Z 27017KT 26/06 A2987 RMK A01 T02580057  RH  028%=      5-min Rain = 0
KCR2 082210Z 27014KT 26/06 A2987 RMK A01 T02570056  RH  028%=      5-min Rain = 0
KCR2 082211Z 26015KT 26/06 A2987 RMK A01 T02570056  RH  028%=      5-min Rain = 0
KCR2 082212Z 26014KT 26/06 A2987 RMK A01 T02570057  RH  028%=      5-min Rain = 0
KCR2 082213Z 27013KT 26/06 A2987 RMK A01 T02560057  RH  028%=      5-min Rain = 0
KCR2 082214Z 26014KT 26/06 A2987 RMK A01 T02560056  RH  028%=      5-min Rain = 0
KCR2 082215Z 26013KT 26/06 A2987 RMK A01 T02560056  RH  028%=      5-min Rain = 0
KCR2 082216Z 26011KT 26/06 A2987 RMK A01 T02560057  RH  028%=      5-min Rain = 0
KCR2 082217Z 26012KT 26/06 A2987 RMK A01 T02550057  RH  028%=      5-min Rain = 0
KCR2 082218Z 25013KT 26/06 A2987 RMK A01 T02550057  RH  028%=      5-min Rain = 0
KCR2 082219Z 26013KT 26/06 A2987 RMK A01 T02550056  RH  028%=      5-min Rain = 0
KCR2 082220Z 26014KT 26/06 A2987 RMK A01 T02550056  RH  028%=      5-min Rain = 0
KCR2 082221Z 27017KT 26/06 A2987 RMK A01 T02550056  RH  028%=      5-min Rain = 0
KCR2 082222Z 27015KT 26/06 A2987 RMK A01 T02550056  RH  028%=      5-min Rain = 0
KCR2 082223Z 26012KT 26/06 A2987 RMK A01 T02560057  RH  028%=      5-min Rain = 0
KCR2 082224Z 26012KT 26/06 A2987 RMK A01 T02560057  RH  028%=      5-min Rain = 0
KCR2 082225Z 26013KT 26/06 A2987 RMK A01 T02560057  RH  028%=      5-min Rain = 0
KCR2 082226Z 26012KT 26/06 A2987 RMK A01 T02560057  RH  028%=      5-min Rain = 0
KCR2 082227Z 26013KT 26/06 A2987 RMK A01 T02560057  RH  028%=      5-min Rain = 0
KCR2 082228Z 26013KT 26/06 A2987 RMK A01 T02560057  RH  028%=      5-min Rain = 0
KCR2 082229Z 26013KT 26/06 A2987 RMK A01 T02560057  RH  028%=      5-min Rain = 0
KCR2 082230Z 26011KT 26/06 A2987 RMK A01 T02560057  RH  028%=      5-min Rain = 0
KCR2 082231Z 27010KT 26/06 A2987 RMK A01 T02560057  RH  028%=      5-min Rain = 0
KCR2 082232Z 27015KT 26/06 A2987 RMK A01 T02560057  RH  028%=      5-min Rain = 0
KCR2 082233Z 27014KT 26/06 A2987 RMK A01 T02570057  RH  028%=      5-min Rain = 0
KCR2 082234Z 26013KT 26/06 A2987 RMK A01 T02570057  RH  028%=      5-min Rain = 0
KCR2 082235Z 27011KT 26/06 A2987 RMK A01 T02570057  RH  028%=      5-min Rain = 0
KCR2 082236Z 27011KT 26/06 A2987 RMK A01 T02570058  RH  028%=      5-min Rain = 0
KCR2 082237Z 26009KT 26/06 A2987 RMK A01 T02570058  RH  028%=      5-min Rain = 0
KCR2 082238Z 27011KT 26/06 A2987 RMK A01 T02570058  RH  028%=      5-min Rain = 0
KCR2 082239Z 27012KT 26/06 A2988 RMK A01 T02570058  RH  028%=      5-min Rain = 0
KCR2 082240Z 27010KT 26/06 A2988 RMK A01 T02570058  RH  028%=      5-min Rain = 0
KCR2 082241Z 26013KT 26/06 A2988 RMK A01 T02570058  RH  028%=      5-min Rain = 0
KCR2 082242Z 27011KT 26/06 A2988 RMK A01 T02560058  RH  028%=      5-min Rain = 0
KCR2 082243Z 27010KT 26/06 A2988 RMK A01 T02570058  RH  028%=      5-min Rain = 0
KCR2 082244Z 26012KT 26/06 A2987 RMK A01 T02570058  RH  028%=      5-min Rain = 0
KCR2 082245Z 27011KT 26/06 A2987 RMK A01 T02560057  RH  028%=      5-min Rain = 0
KCR2 082246Z 27010KT 26/06 A2987 RMK A01 T02560057  RH  028%=      5-min Rain = 0
KCR2 082247Z 26012KT 26/06 A2987 RMK A01 T02570058  RH  028%=      5-min Rain = 0
KCR2 082248Z 27011KT 26/06 A2987 RMK A01 T02560057  RH  028%=      5-min Rain = 0
KCR2 082249Z 27009KT 26/06 A2987 RMK A01 T02560057  RH  028%=      5-min Rain = 0
KCR2 082250Z 27010KT 26/06 A2987 RMK A01 T02560057  RH  028%=      5-min Rain = 0
KCR2 082251Z 27008KT 26/06 A2987 RMK A01 T02560058  RH  028%=      5-min Rain = 0
KCR2 082252Z 27011KT 26/06 A2987 RMK A01 T02550057  RH  028%=      5-min Rain = 0
KCR2 082253Z 27011KT 26/06 A2987 RMK A01 T02550057  RH  028%=      5-min Rain = 0
KCR2 082254Z 27010KT 26/06 A2987 RMK A01 T02550057  RH  028%=      5-min Rain = 0
KCR2 082255Z 26011KT 26/06 A2987 RMK A01 T02550057  RH  028%=      5-min Rain = 0
KCR2 082256Z 26011KT 26/06 A2987 RMK A01 T02550057  RH  028%=      5-min Rain = 0
KCR2 082257Z 26011KT 25/06 A2987 RMK A01 T02540057  RH  028%=      5-min Rain = 0
KCR2 082258Z 26009KT 25/06 A2987 RMK A01 T02540057  RH  028%=      5-min Rain = 0
KCR2 082259Z 26009KT 25/06 A2987 RMK A01 T02530057  RH  028%=      5-min Rain = 0
KCR2 082300Z 26009KT 25/06 A2987 RMK A01 T02520057  RH  029%=      5-min Rain = 0
KCR2 082301Z 26011KT 25/06 A2987 RMK A01 T02520057  RH  029%=      5-min Rain = 0
KCR2 082302Z 26011KT 25/06 A2987 RMK A01 T02520057  RH  029%=      5-min Rain = 0
KCR2 082303Z 26010KT 25/06 A2987 RMK A01 T02510057  RH  029%=      5-min Rain = 0
KCR2 082304Z 26011KT 25/06 A2987 RMK A01 T02510057  RH  029%=      5-min Rain = 0
KCR2 082305Z 26011KT 25/06 A2987 RMK A01 T02510057  RH  029%=      5-min Rain = 0
KCR2 082306Z 26009KT 25/06 A2987 RMK A01 T02510057  RH  029%=      5-min Rain = 0
KCR2 082307Z 26011KT 25/06 A2987 RMK A01 T02500058  RH  029%=      5-min Rain = 0
KCR2 082308Z 26014KT 25/06 A2987 RMK A01 T02500057  RH  029%=      5-min Rain = 0
KCR2 082309Z 26012KT 25/06 A2987 RMK A01 T02500057  RH  029%=      5-min Rain = 0
KCR2 082310Z 26013KT 25/06 A2987 RMK A01 T02510058  RH  029%=      5-min Rain = 0
KCR2 082311Z 26013KT 25/06 A2987 RMK A01 T02510058  RH  029%=      5-min Rain = 0
KCR2 082312Z 26012KT 25/06 A2987 RMK A01 T02510058  RH  029%=      5-min Rain = 0
KCR2 082313Z 26011KT 25/06 A2987 RMK A01 T02500058  RH  029%=      5-min Rain = 0
KCR2 082314Z 26011KT 25/06 A2987 RMK A01 T02500058  RH  029%=      5-min Rain = 0
KCR2 082315Z 26011KT 25/06 A2987 RMK A01 T02490058  RH  029%=      5-min Rain = 0
KCR2 082316Z 26010KT 25/06 A2987 RMK A01 T02490058  RH  029%=      5-min Rain = 0
KCR2 082317Z 26012KT 25/06 A2987 RMK A01 T02480058  RH  029%=      5-min Rain = 0
KCR2 082318Z 26012KT 25/06 A2987 RMK A01 T02480058  RH  029%=      5-min Rain = 0
KCR2 082319Z 26010KT 25/06 A2987 RMK A01 T02470058  RH  029%=      5-min Rain = 0
KCR2 082320Z 26011KT 25/06 A2987 RMK A01 T02470058  RH  030%=      5-min Rain = 0
KCR2 082321Z 26010KT 25/06 A2987 RMK A01 T02460058  RH  030%=      5-min Rain = 0
KCR2 082322Z 26009KT 25/06 A2987 RMK A01 T02460058  RH  030%=      5-min Rain = 0
KCR2 082323Z 27010KT 25/06 A2987 RMK A01 T02450058  RH  030%=      5-min Rain = 0
KCR2 082324Z 27009KT 25/06 A2987 RMK A01 T02450058  RH  030%=      5-min Rain = 0
KCR2 082325Z 27009KT 24/06 A2987 RMK A01 T02440058  RH  030%=      5-min Rain = 0
KCR2 082326Z 27011KT 24/06 A2987 RMK A01 T02430058  RH  030%=      5-min Rain = 0
KCR2 082327Z 27010KT 24/06 A2988 RMK A01 T02430058  RH  030%=      5-min Rain = 0
KCR2 082328Z 27009KT 24/06 A2988 RMK A01 T02430058  RH  030%=      5-min Rain = 0
KCR2 082329Z 27009KT 24/06 A2988 RMK A01 T02430058  RH  030%=      5-min Rain = 0
KCR2 082330Z 27008KT 24/06 A2988 RMK A01 T02420058  RH  031%=      5-min Rain = 0
KCR2 082331Z 27008KT 24/06 A2988 RMK A01 T02410058  RH  031%=      5-min Rain = 0
KCR2 082332Z 27007KT 24/06 A2988 RMK A01 T02410058  RH  031%=      5-min Rain = 0
KCR2 082333Z 27007KT 24/06 A2988 RMK A01 T02410058  RH  031%=      5-min Rain = 0
KCR2 082334Z 27007KT 24/06 A2988 RMK A01 T02400058  RH  031%=      5-min Rain = 0
KCR2 082335Z 27007KT 24/06 A2988 RMK A01 T02390058  RH  031%=      5-min Rain = 0
KCR2 082336Z 27007KT 24/06 A2988 RMK A01 T02390058  RH  031%=      5-min Rain = 0
KCR2 082337Z 28007KT 24/06 A2988 RMK A01 T02380058  RH  031%=      5-min Rain = 0
KCR2 082338Z 28008KT 24/06 A2988 RMK A01 T02360058  RH  032%=      5-min Rain = 0
KCR2 082339Z 28007KT 24/06 A2988 RMK A01 T02350058  RH  032%=      5-min Rain = 0
KCR2 082340Z 28007KT 23/06 A2988 RMK A01 T02340058  RH  032%=      5-min Rain = 0
KCR2 082341Z 28007KT 23/06 A2988 RMK A01 T02320057  RH  032%=      5-min Rain = 0
KCR2 082342Z 28007KT 23/06 A2988 RMK A01 T02320058  RH  032%=      5-min Rain = 0
KCR2 082343Z 28007KT 23/06 A2988 RMK A01 T02310058  RH  033%=      5-min Rain = 0
KCR2 082344Z 29006KT 23/06 A2988 RMK A01 T02290058  RH  033%=      5-min Rain = 0
KCR2 082345Z 29006KT 23/06 A2988 RMK A01 T02260058  RH  033%=      5-min Rain = 0
KCR2 082346Z 29007KT 22/06 A2988 RMK A01 T02240058  RH  034%=      5-min Rain = 0
KCR2 082347Z 29007KT 22/06 A2988 RMK A01 T02230058  RH  034%=      5-min Rain = 0
KCR2 082348Z 29006KT 22/06 A2988 RMK A01 T02230058  RH  034%=      5-min Rain = 0
KCR2 082349Z 29006KT 22/06 A2988 RMK A01 T02210057  RH  035%=      5-min Rain = 0
KCR2 082350Z 29007KT 22/06 A2988 RMK A01 T02190057  RH  035%=      5-min Rain = 0
KCR2 082351Z 29007KT 22/06 A2988 RMK A01 T02190058  RH  035%=      5-min Rain = 0
KCR2 082352Z 29007KT 22/06 A2988 RMK A01 T02190058  RH  035%=      5-min Rain = 0
KCR2 082353Z 28006KT 22/06 A2988 RMK A01 T02180058  RH  035%=      5-min Rain = 0
KCR2 082354Z 28007KT 22/06 A2988 RMK A01 T02180058  RH  035%=      5-min Rain = 0
KCR2 082355Z 28006KT 22/06 A2988 RMK A01 T02190058  RH  035%=      5-min Rain = 0
KCR2 082356Z 29006KT 22/06 A2988 RMK A01 T02190058  RH  035%=      5-min Rain = 0
KCR2 082357Z 28006KT 22/06 A2988 RMK A01 T02190058  RH  035%=      5-min Rain = 0
KCR2 082358Z 29006KT 22/06 A2988 RMK A01 T02190058  RH  035%=      5-min Rain = 0
KCR2 082359Z 29007KT 22/06 A2988 RMK A01 T02180058  RH  035%=      5-min Rain = 0
KCR2 090000Z 29007KT 22/06 A2988 RMK A01 T02170059  RH  036%=      5-min Rain = 0
KCR2 090001Z 28007KT 22/06 A2988 RMK A01 T02170059  RH  036%=      5-min Rain = 0
KCR2 090002Z 28007KT 22/06 A2988 RMK A01 T02160059  RH  036%=      5-min Rain = 0
KCR2 090003Z 28007KT 22/06 A2988 RMK A01 T02170059  RH  036%=      5-min Rain = 0
KCR2 090004Z 28007KT 22/06 A2988 RMK A01 T02180060  RH  036%=      5-min Rain = 0
KCR2 090005Z 29007KT 22/06 A2988 RMK A01 T02180060  RH  036%=      5-min Rain = 0
KCR2 090006Z 29007KT 22/06 A2988 RMK A01 T02180060  RH  036%=      5-min Rain = 0
KCR2 090007Z 28006KT 22/06 A2988 RMK A01 T02160060  RH  036%=      5-min Rain = 0
KCR2 090008Z 29007KT 22/06 A2988 RMK A01 T02150060  RH  036%=      5-min Rain = 0
KCR2 090009Z 29007KT 22/06 A2988 RMK A01 T02160062  RH  037%=      5-min Rain = 0
KCR2 090010Z 28006KT 22/06 A2988 RMK A01 T02170062  RH  037%=      5-min Rain = 0
KCR2 090011Z 28007KT 22/06 A2988 RMK A01 T02180062  RH  036%=      5-min Rain = 0
KCR2 090012Z 28006KT 22/06 A2988 RMK A01 T02170062  RH  036%=      5-min Rain = 0
KCR2 090013Z 28006KT 22/06 A2988 RMK A01 T02170062  RH  036%=      5-min Rain = 0
KCR2 090014Z 28006KT 22/06 A2988 RMK A01 T02170062  RH  037%=      5-min Rain = 0
KCR2 090015Z 28006KT 22/06 A2988 RMK A01 T02170063  RH  037%=      5-min Rain = 0
KCR2 090016Z 28006KT 22/06 A2988 RMK A01 T02160062  RH  037%=      5-min Rain = 0
KCR2 090017Z 28006KT 22/06 A2988 RMK A01 T02160062  RH  037%=      5-min Rain = 0
KCR2 090018Z 28006KT 22/06 A2988 RMK A01 T02150063  RH  037%=      5-min Rain = 0
KCR2 090019Z 28005KT 21/06 A2988 RMK A01 T02140063  RH  037%=      5-min Rain = 0
KCR2 090020Z 28005KT 21/06 A2988 RMK A01 T02130062  RH  037%=      5-min Rain = 0
KCR2 090021Z 27005KT 21/06 A2988 RMK A01 T02130063  RH  038%=      5-min Rain = 0
KCR2 090022Z 27005KT 21/06 A2988 RMK A01 T02120062  RH  038%=      5-min Rain = 0
KCR2 090023Z 27005KT 21/06 A2988 RMK A01 T02110062  RH  038%=      5-min Rain = 0
KCR2 090024Z 27005KT 21/06 A2988 RMK A01 T02100062  RH  038%=      5-min Rain = 0
KCR2 090025Z 27005KT 21/06 A2988 RMK A01 T02090062  RH  038%=      5-min Rain = 0
KCR2 090026Z 27005KT 21/06 A2988 RMK A01 T02080062  RH  039%=      5-min Rain = 0
KCR2 090027Z 27005KT 21/06 A2988 RMK A01 T02070062  RH  039%=      5-min Rain = 0
KCR2 090028Z 27005KT 21/06 A2988 RMK A01 T02060062  RH  039%=      5-min Rain = 0
KCR2 090029Z 27005KT 21/06 A2988 RMK A01 T02060062  RH  039%=      5-min Rain = 0
KCR2 090030Z 27005KT 21/06 A2988 RMK A01 T02050062  RH  039%=      5-min Rain = 0
KCR2 090031Z 27005KT 21/06 A2988 RMK A01 T02050062  RH  039%=      5-min Rain = 0
KCR2 090032Z 27005KT 20/06 A2988 RMK A01 T02040062  RH  040%=      5-min Rain = 0
KCR2 090033Z 27005KT 20/06 A2988 RMK A01 T02040062  RH  040%=      5-min Rain = 0
KCR2 090034Z 27005KT 20/06 A2988 RMK A01 T02030062  RH  040%=      5-min Rain = 0
KCR2 090035Z 27005KT 20/06 A2988 RMK A01 T02030063  RH  040%=      5-min Rain = 0
KCR2 090036Z 27005KT 20/06 A2988 RMK A01 T02030063  RH  040%=      5-min Rain = 0
KCR2 090037Z 27005KT 20/06 A2988 RMK A01 T02030063  RH  040%=      5-min Rain = 0
KCR2 090038Z 28006KT 20/06 A2988 RMK A01 T02030063  RH  040%=      5-min Rain = 0
KCR2 090039Z 28006KT 20/06 A2988 RMK A01 T02030064  RH  040%=      5-min Rain = 0
KCR2 090040Z 28006KT 20/06 A2989 RMK A01 T02040064  RH  040%=      5-min Rain = 0
KCR2 090041Z 27005KT 20/06 A2989 RMK A01 T02040064  RH  040%=      5-min Rain = 0
KCR2 090042Z 27005KT 20/06 A2989 RMK A01 T02040064  RH  040%=      5-min Rain = 0
KCR2 090043Z 27005KT 20/06 A2989 RMK A01 T02030064  RH  040%=      5-min Rain = 0
KCR2 090044Z 27006KT 20/06 A2989 RMK A01 T02020064  RH  040%=      5-min Rain = 0
KCR2 090045Z 28006KT 20/06 A2989 RMK A01 T02020063  RH  040%=      5-min Rain = 0
KCR2 090046Z 27006KT 20/06 A2989 RMK A01 T02020064  RH  040%=      5-min Rain = 0
KCR2 090047Z 27006KT 20/06 A2989 RMK A01 T02020063  RH  040%=      5-min Rain = 0
KCR2 090048Z 28007KT 20/06 A2989 RMK A01 T02020064  RH  041%=      5-min Rain = 0
KCR2 090049Z 28007KT 20/07 A2989 RMK A01 T02030065  RH  041%=      5-min Rain = 0
KCR2 090050Z 28006KT 20/07 A2989 RMK A01 T02020065  RH  041%=      5-min Rain = 0
KCR2 090051Z 28006KT 20/07 A2989 RMK A01 T02020065  RH  041%=      5-min Rain = 0
KCR2 090052Z 28006KT 20/07 A2989 RMK A01 T02000065  RH  041%=      5-min Rain = 0
KCR2 090053Z 29007KT 20/07 A2989 RMK A01 T01990065  RH  042%=      5-min Rain = 0
KCR2 090054Z 28007KT 20/07 A2989 RMK A01 T01980065  RH  042%=      5-min Rain = 0
KCR2 090055Z 28007KT 20/07 A2989 RMK A01 T01980065  RH  042%=      5-min Rain = 0
KCR2 090056Z 28006KT 20/07 A2989 RMK A01 T01980065  RH  042%=      5-min Rain = 0
KCR2 090057Z 28006KT 20/07 A2989 RMK A01 T01980065  RH  042%=      5-min Rain = 0
KCR2 090058Z 28006KT 20/07 A2989 RMK A01 T01980065  RH  042%=      5-min Rain = 0
KCR2 090059Z 28006KT 20/07 A2989 RMK A01 T01980065  RH  042%=      5-min Rain = 0
KCR2 090100Z 28006KT 20/07 A2989 RMK A01 T01980065  RH  042%=      5-min Rain = 0
KCR2 090101Z 28006KT 20/07 A2989 RMK A01 T01980066  RH  042%=      5-min Rain = 0
KCR2 090102Z 28006KT 20/07 A2989 RMK A01 T01980066  RH  042%=      5-min Rain = 0
KCR2 090103Z 28006KT 20/07 A2989 RMK A01 T01980065  RH  042%=      5-min Rain = 0
KCR2 090104Z 28006KT 20/07 A2989 RMK A01 T01990065  RH  042%=      5-min Rain = 0
KCR2 090105Z 28006KT 20/07 A299 RMK A01 T01990065  RH  042%=      5-min Rain = 0
KCR2 090106Z 28006KT 20/07 A299 RMK A01 T01990065  RH  042%=      5-min Rain = 0
KCR2 090107Z 27006KT 20/07 A299 RMK A01 T01980065  RH  042%=      5-min Rain = 0
KCR2 090108Z 27006KT 20/07 A299 RMK A01 T01980065  RH  042%=      5-min Rain = 0
KCR2 090109Z 27006KT 20/07 A299 RMK A01 T01970065  RH  042%=      5-min Rain = 0
KCR2 090110Z 27006KT 20/07 A299 RMK A01 T01970065  RH  042%=      5-min Rain = 0
KCR2 090111Z 27005KT 20/07 A299 RMK A01 T01960065  RH  042%=      5-min Rain = 0
KCR2 090112Z 27006KT 20/07 A299 RMK A01 T01960065  RH  043%=      5-min Rain = 0
KCR2 090113Z 27006KT 20/07 A299 RMK A01 T01950065  RH  043%=      5-min Rain = 0
KCR2 090114Z 27006KT 20/07 A299 RMK A01 T01950065  RH  043%=      5-min Rain = 0
KCR2 090115Z 27006KT 19/07 A299 RMK A01 T01940065  RH  043%=      5-min Rain = 0
KCR2 090116Z 27006KT 19/07 A2989 RMK A01 T01940065  RH  043%=      5-min Rain = 0
KCR2 090117Z 27006KT 19/07 A2989 RMK A01 T01930065  RH  043%=      5-min Rain = 0
KCR2 090118Z 27006KT 19/07 A2989 RMK A01 T01930065  RH  043%=      5-min Rain = 0
KCR2 090119Z 27006KT 19/07 A2989 RMK A01 T01930065  RH  043%=      5-min Rain = 0
KCR2 090120Z 27006KT 19/07 A2989 RMK A01 T01930065  RH  043%=      5-min Rain = 0
KCR2 090121Z 27006KT 19/07 A2989 RMK A01 T01930065  RH  043%=      5-min Rain = 0
KCR2 090122Z 26007KT 19/07 A2989 RMK A01 T01920065  RH  044%=      5-min Rain = 0
KCR2 090123Z 27007KT 19/07 A2989 RMK A01 T01920065  RH  044%=      5-min Rain = 0
KCR2 090124Z 27007KT 19/07 A2989 RMK A01 T01910065  RH  044%=      5-min Rain = 0
KCR2 090125Z 26007KT 19/07 A2989 RMK A01 T01910065  RH  044%=      5-min Rain = 0
KCR2 090126Z 27007KT 19/07 A299 RMK A01 T01900065  RH  044%=      5-min Rain = 0
KCR2 090127Z 27007KT 19/07 A299 RMK A01 T01900065  RH  044%=      5-min Rain = 0
KCR2 090128Z 27007KT 19/07 A299 RMK A01 T01900065  RH  044%=      5-min Rain = 0
KCR2 090129Z 27007KT 19/07 A299 RMK A01 T01900065  RH  044%=      5-min Rain = 0
KCR2 090130Z 27008KT 19/07 A299 RMK A01 T01900065  RH  044%=      5-min Rain = 0
KCR2 090131Z 27008KT 19/07 A299 RMK A01 T01900065  RH  044%=      5-min Rain = 0
KCR2 090132Z 27008KT 19/07 A299 RMK A01 T01900066  RH  044%=      5-min Rain = 0
KCR2 090133Z 27008KT 19/07 A299 RMK A01 T01900066  RH  044%=      5-min Rain = 0
KCR2 090134Z 27008KT 19/07 A299 RMK A01 T01900066  RH  044%=      5-min Rain = 0
KCR2 090135Z 27007KT 19/07 A299 RMK A01 T01900066  RH  044%=      5-min Rain = 0
KCR2 090136Z 27007KT 19/07 A299 RMK A01 T01910066  RH  044%=      5-min Rain = 0
KCR2 090137Z 27008KT 19/07 A299 RMK A01 T01900066  RH  044%=      5-min Rain = 0
KCR2 090138Z 27008KT 19/07 A299 RMK A01 T01900065  RH  044%=      5-min Rain = 0
KCR2 090139Z 27008KT 19/07 A299 RMK A01 T01900066  RH  044%=      5-min Rain = 0
KCR2 090140Z 27008KT 19/07 A299 RMK A01 T01900066  RH  044%=      5-min Rain = 0
KCR2 090141Z 27008KT 19/07 A299 RMK A01 T01910066  RH  044%=      5-min Rain = 0
KCR2 090142Z 27008KT 19/07 A299 RMK A01 T01900066  RH  044%=      5-min Rain = 0
KCR2 090143Z 27008KT 19/07 A299 RMK A01 T01900066  RH  044%=      5-min Rain = 0
KCR2 090144Z 27008KT 19/07 A299 RMK A01 T01900066  RH  044%=      5-min Rain = 0
KCR2 090145Z 27007KT 19/07 A299 RMK A01 T01900066  RH  044%=      5-min Rain = 0
KCR2 090146Z 27008KT 19/07 A299 RMK A01 T01890066  RH  044%=      5-min Rain = 0
KCR2 090147Z 27007KT 19/07 A299 RMK A01 T01890065  RH  044%=      5-min Rain = 0
KCR2 090148Z 27007KT 19/07 A299 RMK A01 T01890066  RH  045%=      5-min Rain = 0
KCR2 090149Z 27007KT 19/07 A299 RMK A01 T01880066  RH  045%=      5-min Rain = 0
KCR2 090150Z 27008KT 19/07 A299 RMK A01 T01880066  RH  045%=      5-min Rain = 0
KCR2 090151Z 27008KT 19/07 A299 RMK A01 T01870066  RH  045%=      5-min Rain = 0
KCR2 090152Z 27007KT 19/07 A299 RMK A01 T01870066  RH  045%=      5-min Rain = 0
KCR2 090153Z 27008KT 19/07 A299 RMK A01 T01870066  RH  045%=      5-min Rain = 0
KCR2 090154Z 27007KT 19/07 A299 RMK A01 T01870066  RH  045%=      5-min Rain = 0
KCR2 090155Z 27007KT 19/07 A299 RMK A01 T01870066  RH  045%=      5-min Rain = 0
KCR2 090156Z 27007KT 19/07 A299 RMK A01 T01860066  RH  045%=      5-min Rain = 0
KCR2 090157Z 28007KT 19/07 A299 RMK A01 T01860066  RH  045%=      5-min Rain = 0
KCR2 090158Z 28007KT 19/07 A299 RMK A01 T01860066  RH  045%=      5-min Rain = 0
KCR2 090159Z 28007KT 19/07 A299 RMK A01 T01870066  RH  045%=      5-min Rain = 0
KCR2 090200Z 28007KT 19/07 A299 RMK A01 T01880066  RH  045%=      5-min Rain = 0
KCR2 090201Z 28007KT 19/07 A299 RMK A01 T01880066  RH  045%=      5-min Rain = 0
KCR2 090202Z 28007KT 19/07 A299 RMK A01 T01880066  RH  045%=      5-min Rain = 0
KCR2 090203Z 28007KT 19/07 A299 RMK A01 T01870066  RH  045%=      5-min Rain = 0
KCR2 090204Z 28007KT 19/07 A299 RMK A01 T01870066  RH  045%=      5-min Rain = 0
KCR2 090205Z 28007KT 19/07 A299 RMK A01 T01870067  RH  045%=      5-min Rain = 0
KCR2 090206Z 27007KT 19/07 A299 RMK A01 T01870067  RH  045%=      5-min Rain = 0
KCR2 090207Z 27006KT 19/07 A299 RMK A01 T01870066  RH  045%=      5-min Rain = 0
KCR2 090208Z 27006KT 19/07 A299 RMK A01 T01870066  RH  045%=      5-min Rain = 0
KCR2 090209Z 27006KT 19/07 A299 RMK A01 T01870066  RH  045%=      5-min Rain = 0
KCR2 090210Z 27006KT 19/07 A299 RMK A01 T01870066  RH  045%=      5-min Rain = 0
KCR2 090211Z 27006KT 19/07 A299 RMK A01 T01870066  RH  045%=      5-min Rain = 0
KCR2 090212Z 28006KT 19/07 A299 RMK A01 T01870067  RH  045%=      5-min Rain = 0
KCR2 090213Z 27006KT 19/07 A299 RMK A01 T01860066  RH  046%=      5-min Rain = 0
KCR2 090214Z 27006KT 19/07 A299 RMK A01 T01860067  RH  046%=      5-min Rain = 0
KCR2 090215Z 27006KT 19/07 A299 RMK A01 T01860066  RH  046%=      5-min Rain = 0
KCR2 090216Z 27006KT 19/07 A299 RMK A01 T01860066  RH  046%=      5-min Rain = 0
KCR2 090217Z 28006KT 19/07 A299 RMK A01 T01850066  RH  046%=      5-min Rain = 0
KCR2 090218Z 28006KT 19/07 A299 RMK A01 T01850066  RH  046%=      5-min Rain = 0
KCR2 090219Z 28006KT 19/07 A299 RMK A01 T01850066  RH  046%=      5-min Rain = 0
KCR2 090220Z 28006KT 19/07 A299 RMK A01 T01850066  RH  046%=      5-min Rain = 0
KCR2 090221Z 28005KT 18/07 A299 RMK A01 T01840066  RH  046%=      5-min Rain = 0
KCR2 090222Z 28005KT 18/07 A299 RMK A01 T01840066  RH  046%=      5-min Rain = 0
KCR2 090223Z 28006KT 18/07 A299 RMK A01 T01830066  RH  046%=      5-min Rain = 0
KCR2 090224Z 28005KT 18/07 A299 RMK A01 T01820066  RH  047%=      5-min Rain = 0
KCR2 090225Z 28006KT 18/07 A299 RMK A01 T01820066  RH  047%=      5-min Rain = 0
KCR2 090226Z 28006KT 18/07 A299 RMK A01 T01820066  RH  047%=      5-min Rain = 0
KCR2 090227Z 28006KT 18/07 A299 RMK A01 T01820066  RH  047%=      5-min Rain = 0
KCR2 090228Z 28007KT 18/07 A299 RMK A01 T01820066  RH  047%=      5-min Rain = 0
KCR2 090229Z 28006KT 18/07 A299 RMK A01 T01820066  RH  047%=      5-min Rain = 0
KCR2 090230Z 28006KT 18/07 A299 RMK A01 T01820066  RH  047%=      5-min Rain = 0
KCR2 090231Z 28006KT 18/07 A299 RMK A01 T01830066  RH  046%=      5-min Rain = 0
KCR2 090232Z 28006KT 18/07 A299 RMK A01 T01830066  RH  046%=      5-min Rain = 0
KCR2 090233Z 28006KT 18/07 A299 RMK A01 T01830066  RH  046%=      5-min Rain = 0
KCR2 090234Z 28006KT 18/07 A299 RMK A01 T01830066  RH  046%=      5-min Rain = 0
KCR2 090235Z 28006KT 18/07 A299 RMK A01 T01830066  RH  046%=      5-min Rain = 0
KCR2 090236Z 27006KT 18/07 A299 RMK A01 T01830066  RH  046%=      5-min Rain = 0
KCR2 090237Z 28006KT 18/07 A299 RMK A01 T01820066  RH  046%=      5-min Rain = 0
KCR2 090238Z 27006KT 18/07 A299 RMK A01 T01820066  RH  046%=      5-min Rain = 0
KCR2 090239Z 28006KT 18/07 A299 RMK A01 T01820066  RH  046%=      5-min Rain = 0
KCR2 090240Z 28007KT 18/07 A299 RMK A01 T01830066  RH  046%=      5-min Rain = 0
KCR2 090241Z 27006KT 18/07 A2989 RMK A01 T01840066  RH  046%=      5-min Rain = 0
KCR2 090242Z 27006KT 19/07 A2989 RMK A01 T01850066  RH  046%=      5-min Rain = 0
KCR2 090243Z 27006KT 18/07 A299 RMK A01 T01840066  RH  046%=      5-min Rain = 0
KCR2 090244Z 28006KT 18/07 A299 RMK A01 T01840066  RH  046%=      5-min Rain = 0
KCR2 090245Z 27006KT 18/07 A299 RMK A01 T01840066  RH  046%=      5-min Rain = 0
KCR2 090246Z 27006KT 18/07 A299 RMK A01 T01840066  RH  046%=      5-min Rain = 0
KCR2 090247Z 27006KT 18/07 A299 RMK A01 T01840066  RH  046%=      5-min Rain = 0
KCR2 090248Z 27006KT 18/07 A299 RMK A01 T01840065  RH  046%=      5-min Rain = 0
KCR2 090249Z 27006KT 18/07 A299 RMK A01 T01840065  RH  046%=      5-min Rain = 0
KCR2 090250Z 27006KT 18/07 A299 RMK A01 T01840065  RH  046%=      5-min Rain = 0
KCR2 090251Z 27006KT 18/07 A299 RMK A01 T01830065  RH  046%=      5-min Rain = 0
KCR2 090252Z 27006KT 18/07 A299 RMK A01 T01830065  RH  046%=      5-min Rain = 0
KCR2 090253Z 27005KT 18/07 A299 RMK A01 T01820065  RH  046%=      5-min Rain = 0
KCR2 090254Z 27005KT 18/07 A2989 RMK A01 T01810065  RH  047%=      5-min Rain = 0
KCR2 090255Z 27005KT 18/07 A2989 RMK A01 T01810065  RH  047%=      5-min Rain = 0
KCR2 090256Z 27005KT 18/07 A2989 RMK A01 T01800065  RH  047%=      5-min Rain = 0
KCR2 090257Z 27005KT 18/07 A2989 RMK A01 T01800065  RH  047%=      5-min Rain = 0
KCR2 090258Z 27005KT 18/07 A2989 RMK A01 T01790065  RH  047%=      5-min Rain = 0
KCR2 090259Z 27005KT 18/07 A2989 RMK A01 T01790065  RH  047%=      5-min Rain = 0
KCR2 090300Z 27005KT 18/07 A2989 RMK A01 T01790065  RH  047%=      5-min Rain = 0
KCR2 090301Z 27005KT 18/07 A2989 RMK A01 T01790065  RH  047%=      5-min Rain = 0
KCR2 090302Z 27005KT 18/07 A2989 RMK A01 T01790065  RH  047%=      5-min Rain = 0
KCR2 090303Z 26005KT 18/06 A2989 RMK A01 T01780064  RH  047%=      5-min Rain = 0
KCR2 090304Z 26005KT 18/06 A2989 RMK A01 T01770064  RH  048%=      5-min Rain = 0
KCR2 090305Z 27006KT 18/06 A2989 RMK A01 T01770064  RH  048%=      5-min Rain = 0
KCR2 090306Z 26006KT 18/06 A2989 RMK A01 T01760064  RH  048%=      5-min Rain = 0
KCR2 090307Z 26006KT 18/06 A2989 RMK A01 T01760064  RH  048%=      5-min Rain = 0
KCR2 090308Z 26006KT 18/06 A2989 RMK A01 T01750064  RH  048%=      5-min Rain = 0
KCR2 090309Z 25006KT 17/07 A2989 RMK A01 T01740065  RH  048%=      5-min Rain = 0
KCR2 090310Z 25006KT 17/07 A2989 RMK A01 T01740066  RH  049%=      5-min Rain = 0
KCR2 090311Z 25006KT 17/07 A2989 RMK A01 T01730067  RH  050%=      5-min Rain = 0
KCR2 090312Z 25006KT 17/07 A2989 RMK A01 T01720067  RH  050%=      5-min Rain = 0
KCR2 090313Z 26006KT 17/07 A2989 RMK A01 T01720067  RH  050%=      5-min Rain = 0
KCR2 090314Z 26006KT 17/07 A2989 RMK A01 T01720067  RH  050%=      5-min Rain = 0
KCR2 090315Z 26006KT 17/07 A2989 RMK A01 T01710066  RH  050%=      5-min Rain = 0
KCR2 090316Z 26006KT 17/07 A2989 RMK A01 T01710066  RH  050%=      5-min Rain = 0
KCR2 090317Z 26006KT 17/07 A2989 RMK A01 T01700066  RH  050%=      5-min Rain = 0
KCR2 090318Z 25006KT 17/07 A2989 RMK A01 T01700066  RH  050%=      5-min Rain = 0
KCR2 090319Z 25006KT 17/07 A2989 RMK A01 T01700066  RH  050%=      5-min Rain = 0
KCR2 090320Z 25006KT 17/07 A2989 RMK A01 T01700066  RH  050%=      5-min Rain = 0
KCR2 090321Z 25005KT 17/07 A2989 RMK A01 T01700066  RH  050%=      5-min Rain = 0
KCR2 090322Z 25005KT 17/07 A2989 RMK A01 T01700067  RH  051%=      5-min Rain = 0
KCR2 090323Z 25005KT 17/07 A2989 RMK A01 T01700067  RH  051%=      5-min Rain = 0
KCR2 090324Z 25005KT 17/07 A2989 RMK A01 T01690066  RH  051%=      5-min Rain = 0
KCR2 090325Z 25006KT 17/07 A2989 RMK A01 T01690067  RH  051%=      5-min Rain = 0
KCR2 090326Z 24005KT 17/07 A2989 RMK A01 T01680067  RH  051%=      5-min Rain = 0
KCR2 090327Z 24005KT 17/07 A2989 RMK A01 T01680067  RH  051%=      5-min Rain = 0
KCR2 090328Z 24005KT 17/07 A2989 RMK A01 T01670067  RH  052%=      5-min Rain = 0
KCR2 090329Z 24005KT 17/07 A2989 RMK A01 T01660067  RH  052%=      5-min Rain = 0
KCR2 090330Z 24005KT 17/07 A2989 RMK A01 T01660066  RH  052%=      5-min Rain = 0
KCR2 090331Z 24005KT 17/07 A2989 RMK A01 T01660067  RH  052%=      5-min Rain = 0
KCR2 090332Z 24006KT 17/07 A299 RMK A01 T01650066  RH  052%=      5-min Rain = 0
KCR2 090333Z 24006KT 17/07 A299 RMK A01 T01650067  RH  052%=      5-min Rain = 0
KCR2 090334Z 24006KT 17/07 A299 RMK A01 T01650067  RH  052%=      5-min Rain = 0
KCR2 090335Z 23006KT 17/07 A299 RMK A01 T01650067  RH  052%=      5-min Rain = 0
KCR2 090336Z 23006KT 16/07 A299 RMK A01 T01640066  RH  052%=      5-min Rain = 0
KCR2 090337Z 23006KT 16/07 A299 RMK A01 T01640065  RH  052%=      5-min Rain = 0
KCR2 090338Z 23007KT 16/06 A299 RMK A01 T01630064  RH  052%=      5-min Rain = 0
KCR2 090339Z 23007KT 16/06 A299 RMK A01 T01630064  RH  052%=      5-min Rain = 0
KCR2 090340Z 22006KT 16/06 A299 RMK A01 T01630064  RH  052%=      5-min Rain = 0
KCR2 090341Z 22007KT 16/06 A299 RMK A01 T01630064  RH  052%=      5-min Rain = 0
KCR2 090342Z 22007KT 16/06 A299 RMK A01 T01630064  RH  052%=      5-min Rain = 0
KCR2 090343Z 22007KT 16/06 A299 RMK A01 T01630063  RH  052%=      5-min Rain = 0
KCR2 090344Z 22007KT 16/06 A299 RMK A01 T01630063  RH  052%=      5-min Rain = 0
KCR2 090345Z 22007KT 16/06 A299 RMK A01 T01630064  RH  052%=      5-min Rain = 0
KCR2 090346Z 22007KT 16/06 A2989 RMK A01 T01640064  RH  052%=      5-min Rain = 0
KCR2 090347Z 21007KT 16/06 A2989 RMK A01 T01640064  RH  051%=      5-min Rain = 0
KCR2 090348Z 21007KT 16/06 A2989 RMK A01 T01640064  RH  051%=      5-min Rain = 0
KCR2 090349Z 21007KT 16/06 A2989 RMK A01 T01640063  RH  051%=      5-min Rain = 0
KCR2 090350Z 21008KT 16/06 A2989 RMK A01 T01640063  RH  051%=      5-min Rain = 0
KCR2 090351Z 21008KT 16/06 A2989 RMK A01 T01640064  RH  051%=      5-min Rain = 0
KCR2 090352Z 21008KT 16/06 A2989 RMK A01 T01640063  RH  051%=      5-min Rain = 0
KCR2 090353Z 21007KT 17/06 A2989 RMK A01 T01650064  RH  051%=      5-min Rain = 0
KCR2 090354Z 21008KT 17/06 A2989 RMK A01 T01650064  RH  051%=      5-min Rain = 0
KCR2 090355Z 22008KT 17/06 A2989 RMK A01 T01650064  RH  051%=      5-min Rain = 0
KCR2 090356Z 22007KT 17/06 A2989 RMK A01 T01650064  RH  051%=      5-min Rain = 0
KCR2 090357Z 22007KT 17/06 A2989 RMK A01 T01660064  RH  051%=      5-min Rain = 0
KCR2 090358Z 22006KT 17/06 A2989 RMK A01 T01660064  RH  051%=      5-min Rain = 0
KCR2 090359Z 23006KT 17/07 A299 RMK A01 T01660065  RH  051%=      5-min Rain = 0
KCR2 090400Z 23006KT 17/07 A299 RMK A01 T01650066  RH  052%=      5-min Rain = 0
KCR2 090401Z 24006KT 17/07 A2989 RMK A01 T01650066  RH  052%=      5-min Rain = 0
KCR2 090402Z 24006KT 17/07 A2989 RMK A01 T01660067  RH  052%=      5-min Rain = 0
KCR2 090403Z 24007KT 17/07 A2989 RMK A01 T01670067  RH  052%=      5-min Rain = 0
KCR2 090404Z 25006KT 17/07 A2989 RMK A01 T01680066  RH  051%=      5-min Rain = 0
KCR2 090405Z 25006KT 17/07 A2989 RMK A01 T01680066  RH  051%=      5-min Rain = 0
KCR2 090406Z 26006KT 17/07 A2989 RMK A01 T01680065  RH  051%=      5-min Rain = 0
KCR2 090407Z 26006KT 17/07 A2989 RMK A01 T01680065  RH  051%=      5-min Rain = 0
KCR2 090408Z 26006KT 17/07 A2989 RMK A01 T01680065  RH  050%=      5-min Rain = 0
KCR2 090409Z 26006KT 17/07 A2989 RMK A01 T01690065  RH  050%=      5-min Rain = 0
KCR2 090410Z 26006KT 17/07 A2989 RMK A01 T01690065  RH  050%=      5-min Rain = 0
KCR2 090411Z 26006KT 17/06 A2989 RMK A01 T01690064  RH  050%=      5-min Rain = 0
KCR2 090412Z 26006KT 17/07 A2989 RMK A01 T01690065  RH  050%=      5-min Rain = 0
KCR2 090413Z 26006KT 17/06 A2989 RMK A01 T01690064  RH  050%=      5-min Rain = 0
KCR2 090414Z 26006KT 17/06 A2989 RMK A01 T01690064  RH  050%=      5-min Rain = 0
KCR2 090415Z 26006KT 17/06 A2989 RMK A01 T01690064  RH  050%=      5-min Rain = 0
KCR2 090416Z 26007KT 17/06 A2989 RMK A01 T01690064  RH  050%=      5-min Rain = 0
KCR2 090417Z 26006KT 17/06 A2989 RMK A01 T01690064  RH  050%=      5-min Rain = 0
KCR2 090418Z 26006KT 17/06 A2989 RMK A01 T01680064  RH  050%=      5-min Rain = 0
KCR2 090419Z 26006KT 17/06 A2989 RMK A01 T01680064  RH  050%=      5-min Rain = 0
KCR2 090420Z 26006KT 17/06 A2989 RMK A01 T01680064  RH  050%=      5-min Rain = 0
KCR2 090421Z 26006KT 17/06 A299 RMK A01 T01680064  RH  050%=      5-min Rain = 0
KCR2 090422Z 26006KT 17/06 A299 RMK A01 T01670064  RH  051%=      5-min Rain = 0
KCR2 090423Z 26006KT 17/06 A2989 RMK A01 T01670064  RH  051%=      5-min Rain = 0
KCR2 090424Z 25005KT 17/06 A2989 RMK A01 T01660064  RH  051%=      5-min Rain = 0
KCR2 090425Z 25005KT 17/06 A2989 RMK A01 T01660064  RH  051%=      5-min Rain = 0
KCR2 090426Z 25005KT 17/06 A2989 RMK A01 T01650064  RH  051%=      5-min Rain = 0
KCR2 090427Z 25005KT 17/06 A2989 RMK A01 T01650064  RH  051%=      5-min Rain = 0
KCR2 090428Z 24005KT 16/07 A2989 RMK A01 T01640065  RH  052%=      5-min Rain = 0
KCR2 090429Z 24005KT 16/07 A2989 RMK A01 T01630066  RH  052%=      5-min Rain = 0
KCR2 090430Z 24005KT 16/07 A2989 RMK A01 T01620066  RH  053%=      5-min Rain = 0
KCR2 090431Z 23005KT 16/07 A2989 RMK A01 T01620066  RH  053%=      5-min Rain = 0
KCR2 090432Z 23005KT 16/07 A2989 RMK A01 T01610066  RH  053%=      5-min Rain = 0
KCR2 090433Z 22005KT 16/07 A2989 RMK A01 T01600066  RH  054%=      5-min Rain = 0
KCR2 090434Z 21005KT 16/07 A2989 RMK A01 T01590065  RH  053%=      5-min Rain = 0
KCR2 090435Z 21005KT 16/06 A2989 RMK A01 T01590064  RH  053%=      5-min Rain = 0
KCR2 090436Z 21006KT 16/06 A2989 RMK A01 T01580063  RH  053%=      5-min Rain = 0
KCR2 090437Z 21006KT 16/06 A2989 RMK A01 T01570063  RH  053%=      5-min Rain = 0
KCR2 090438Z 21006KT 16/06 A2989 RMK A01 T01570063  RH  054%=      5-min Rain = 0
KCR2 090439Z 22006KT 16/06 A2989 RMK A01 T01570063  RH  054%=      5-min Rain = 0
KCR2 090440Z 22006KT 16/06 A2989 RMK A01 T01570064  RH  054%=      5-min Rain = 0
KCR2 090441Z 22006KT 16/06 A2989 RMK A01 T01570064  RH  054%=      5-min Rain = 0
KCR2 090442Z 23006KT 16/06 A2989 RMK A01 T01570064  RH  054%=      5-min Rain = 0
KCR2 090443Z 23006KT 16/06 A2989 RMK A01 T01570064  RH  054%=      5-min Rain = 0
KCR2 090444Z 23006KT 16/07 A2989 RMK A01 T01570065  RH  054%=      5-min Rain = 0
KCR2 090445Z 23007KT 16/07 A299 RMK A01 T01580066  RH  054%=      5-min Rain = 0
KCR2 090446Z 23007KT 16/07 A299 RMK A01 T01590066  RH  054%=      5-min Rain = 0
KCR2 090447Z 23007KT 16/07 A299 RMK A01 T01580066  RH  054%=      5-min Rain = 0
KCR2 090448Z 23006KT 16/07 A299 RMK A01 T01590066  RH  054%=      5-min Rain = 0
KCR2 090449Z 23007KT 16/07 A299 RMK A01 T01590066  RH  054%=      5-min Rain = 0
KCR2 090450Z 23006KT 16/07 A299 RMK A01 T01600066  RH  054%=      5-min Rain = 0
KCR2 090451Z 23006KT 16/07 A299 RMK A01 T01600066  RH  054%=      5-min Rain = 0
KCR2 090452Z 23006KT 16/07 A299 RMK A01 T01600066  RH  054%=      5-min Rain = 0
KCR2 090453Z 24006KT 16/07 A299 RMK A01 T01600066  RH  054%=      5-min Rain = 0
KCR2 090454Z 24006KT 16/07 A299 RMK A01 T01590066  RH  054%=      5-min Rain = 0
KCR2 090455Z 23006KT 16/07 A299 RMK A01 T01590066  RH  054%=      5-min Rain = 0
KCR2 090456Z 23006KT 16/07 A299 RMK A01 T01590066  RH  054%=      5-min Rain = 0
KCR2 090457Z 23006KT 16/07 A299 RMK A01 T01590066  RH  054%=      5-min Rain = 0
KCR2 090458Z 23006KT 16/07 A299 RMK A01 T01580066  RH  054%=      5-min Rain = 0
KCR2 090459Z 24006KT 16/07 A299 RMK A01 T01580066  RH  054%=      5-min Rain = 0
KCR2 090500Z 24006KT 16/07 A299 RMK A01 T01580066  RH  054%=      5-min Rain = 0
KCR2 090501Z 23006KT 16/07 A299 RMK A01 T01580066  RH  054%=      5-min Rain = 0
KCR2 090502Z 23006KT 16/07 A299 RMK A01 T01580066  RH  054%=      5-min Rain = 0
KCR2 090503Z 24006KT 16/07 A299 RMK A01 T01570066  RH  054%=      5-min Rain = 0
KCR2 090504Z 24006KT 16/07 A299 RMK A01 T01570066  RH  055%=      5-min Rain = 0
KCR2 090505Z 24006KT 16/07 A299 RMK A01 T01560065  RH  055%=      5-min Rain = 0
KCR2 090506Z 24006KT 16/07 A299 RMK A01 T01560065  RH  055%=      5-min Rain = 0
KCR2 090507Z 24006KT 16/07 A299 RMK A01 T01560066  RH  055%=      5-min Rain = 0
KCR2 090508Z 24006KT 16/07 A299 RMK A01 T01560066  RH  055%=      5-min Rain = 0
KCR2 090509Z 24006KT 16/07 A299 RMK A01 T01560066  RH  055%=      5-min Rain = 0
KCR2 090510Z 24005KT 16/07 A299 RMK A01 T01550065  RH  055%=      5-min Rain = 0
KCR2 090511Z 24005KT 16/07 A299 RMK A01 T01550066  RH  055%=      5-min Rain = 0
KCR2 090512Z 24005KT 16/07 A299 RMK A01 T01550066  RH  055%=      5-min Rain = 0
KCR2 090513Z 24005KT 15/07 A2991 RMK A01 T01540065  RH  055%=      5-min Rain = 0
KCR2 090514Z 24005KT 15/07 A2991 RMK A01 T01540065  RH  055%=      5-min Rain = 0
KCR2 090515Z 24005KT 15/07 A299 RMK A01 T01530065  RH  056%=      5-min Rain = 0
KCR2 090516Z 24005KT 15/07 A299 RMK A01 T01530065  RH  056%=      5-min Rain = 0
KCR2 090517Z 24005KT 15/07 A299 RMK A01 T01520065  RH  056%=      5-min Rain = 0
KCR2 090518Z 24005KT 15/07 A299 RMK A01 T01520065  RH  056%=      5-min Rain = 0
KCR2 090519Z 24005KT 15/07 A2991 RMK A01 T01510065  RH  056%=      5-min Rain = 0
KCR2 090520Z 24005KT 15/07 A2991 RMK A01 T01510065  RH  056%=      5-min Rain = 0
KCR2 090521Z 24005KT 15/07 A2991 RMK A01 T01510065  RH  056%=      5-min Rain = 0
KCR2 090522Z 24005KT 15/07 A2991 RMK A01 T01510065  RH  056%=      5-min Rain = 0
KCR2 090523Z 24006KT 15/07 A299 RMK A01 T01500065  RH  057%=      5-min Rain = 0
KCR2 090524Z 24006KT 15/07 A299 RMK A01 T01500065  RH  057%=      5-min Rain = 0
KCR2 090525Z 24005KT 15/07 A299 RMK A01 T01500065  RH  057%=      5-min Rain = 0
KCR2 090526Z 24006KT 15/07 A299 RMK A01 T01500065  RH  057%=      5-min Rain = 0
KCR2 090527Z 24006KT 15/07 A299 RMK A01 T01500065  RH  057%=      5-min Rain = 0
KCR2 090528Z 23005KT 15/07 A299 RMK A01 T01500065  RH  057%=      5-min Rain = 0
KCR2 090529Z 23006KT 15/07 A299 RMK A01 T01500065  RH  057%=      5-min Rain = 0
KCR2 090530Z 23005KT 15/07 A299 RMK A01 T01490065  RH  057%=      5-min Rain = 0
KCR2 090531Z 23006KT 15/07 A299 RMK A01 T01490065  RH  057%=      5-min Rain = 0
KCR2 090532Z 23006KT 15/07 A299 RMK A01 T01490065  RH  057%=      5-min Rain = 0
KCR2 090533Z 23006KT 15/07 A299 RMK A01 T01490065  RH  057%=      5-min Rain = 0
KCR2 090534Z 24005KT 15/07 A299 RMK A01 T01500065  RH  057%=      5-min Rain = 0
KCR2 090535Z 24005KT 15/07 A299 RMK A01 T01500065  RH  057%=      5-min Rain = 0
KCR2 090536Z 25006KT 15/07 A299 RMK A01 T01500065  RH  057%=      5-min Rain = 0
KCR2 090537Z 25006KT 15/07 A299 RMK A01 T01500065  RH  057%=      5-min Rain = 0
KCR2 090538Z 25006KT 15/07 A299 RMK A01 T01500065  RH  056%=      5-min Rain = 0
KCR2 090539Z 25006KT 15/06 A299 RMK A01 T01500064  RH  056%=      5-min Rain = 0
KCR2 090540Z 25006KT 15/06 A299 RMK A01 T01490064  RH  056%=      5-min Rain = 0
KCR2 090541Z 25006KT 15/06 A299 RMK A01 T01490063  RH  056%=      5-min Rain = 0
KCR2 090542Z 25006KT 15/06 A299 RMK A01 T01490063  RH  057%=      5-min Rain = 0
KCR2 090543Z 24006KT 15/06 A299 RMK A01 T01480063  RH  057%=      5-min Rain = 0
KCR2 090544Z 24006KT 15/06 A299 RMK A01 T01480063  RH  057%=      5-min Rain = 0
KCR2 090545Z 24006KT 15/06 A299 RMK A01 T01480063  RH  057%=      5-min Rain = 0
KCR2 090546Z 25006KT 15/06 A299 RMK A01 T01480064  RH  057%=      5-min Rain = 0
KCR2 090547Z 25006KT 15/06 A299 RMK A01 T01480064  RH  057%=      5-min Rain = 0
KCR2 090548Z 25006KT 15/06 A299 RMK A01 T01480064  RH  057%=      5-min Rain = 0
KCR2 090549Z 25007KT 15/06 A299 RMK A01 T01470063  RH  057%=      5-min Rain = 0
KCR2 090550Z 25007KT 15/06 A299 RMK A01 T01480064  RH  057%=      5-min Rain = 0
KCR2 090551Z 25006KT 15/06 A299 RMK A01 T01480064  RH  057%=      5-min Rain = 0
KCR2 090552Z 26006KT 15/06 A299 RMK A01 T01470063  RH  057%=      5-min Rain = 0
KCR2 090553Z 26006KT 15/06 A299 RMK A01 T01470063  RH  057%=      5-min Rain = 0
KCR2 090554Z 26006KT 15/06 A299 RMK A01 T01470063  RH  057%=      5-min Rain = 0
KCR2 090555Z 26006KT 15/06 A299 RMK A01 T01470062  RH  057%=      5-min Rain = 0
KCR2 090556Z 26006KT 15/06 A299 RMK A01 T01470062  RH  057%=      5-min Rain = 0
KCR2 090557Z 26006KT 15/06 A299 RMK A01 T01480062  RH  057%=      5-min Rain = 0
KCR2 090558Z 26006KT 15/06 A299 RMK A01 T01480062  RH  057%=      5-min Rain = 0
KCR2 090559Z 26007KT 15/06 A299 RMK A01 T01480062  RH  056%=      5-min Rain = 0

Page generated in 0.079 seconds.